Time,TemperatureF,DewpointF,PressureIn,WindDirection,WindDirectionDegrees,WindSpeedMPH,WindSpeedGustMPH,Humidity,HourlyPrecipIn,Conditions,Clouds,dailyrainin,SoftwareType,DateUTC
2013-09-19 00:00:00,78.5,74.2,29.60,ESE,121,0.0,0.0,87,0.00,,,0.00,VWS V14.01,2013-09-19 04:00:00,
2013-09-19 00:01:00,78.5,74.2,29.60,ESE,121,0.0,0.0,87,0.00,,,0.08,VWS V14.01,2013-09-19 04:01:00,
2013-09-19 00:02:00,78.4,74.1,29.60,ESE,121,0.0,0.0,87,0.00,,,0.00,VWS V14.01,2013-09-19 04:02:00,
2013-09-19 00:04:00,78.4,74.2,29.60,ESE,121,0.0,0.0,87,0.00,,,0.00,VWS V14.01,2013-09-19 04:04:00,
2013-09-19 00:06:00,78.4,74.2,29.60,ESE,121,0.0,0.0,87,0.00,,,0.00,VWS V14.01,2013-09-19 04:06:00,
2013-09-19 00:08:00,78.3,74.2,29.60,ESE,121,0.0,0.0,87,0.00,,,0.00,VWS V14.01,2013-09-19 04:08:00,
2013-09-19 00:10:00,78.3,74.4,29.60,ESE,121,0.0,0.0,88,0.00,,,0.00,VWS V14.01,2013-09-19 04:10:00,
2013-09-19 00:12:00,78.3,74.4,29.60,ESE,121,0.0,0.0,88,0.00,,,0.00,VWS V14.01,2013-09-19 04:12:00,
2013-09-19 00:13:00,78.3,74.4,29.60,ESE,121,0.0,0.0,88,0.00,,,0.00,VWS V14.01,2013-09-19 04:13:00,
2013-09-19 00:14:00,78.2,74.4,29.59,ESE,121,0.0,0.0,88,0.00,,,0.00,VWS V14.01,2013-09-19 04:14:00,
2013-09-19 00:16:00,78.3,74.5,29.59,ESE,121,0.0,0.0,88,0.00,,,0.00,VWS V14.01,2013-09-19 04:16:00,
2013-09-19 00:18:00,78.2,74.4,29.59,ESE,121,0.0,0.0,88,0.00,,,0.00,VWS V14.01,2013-09-19 04:18:00,
2013-09-19 00:20:00,78.2,74.4,29.59,ESE,121,0.0,0.0,88,0.00,,,0.00,VWS V14.01,2013-09-19 04:20:00,
2013-09-19 00:22:00,78.2,74.4,29.60,ESE,121,0.0,0.0,88,0.00,,,0.00,VWS V14.01,2013-09-19 04:22:00,
2013-09-19 00:23:00,78.3,74.5,29.60,ESE,121,0.0,0.0,88,0.00,,,0.00,VWS V14.01,2013-09-19 04:23:00,
2013-09-19 00:24:00,78.3,74.5,29.60,ESE,121,0.0,0.0,88,0.00,,,0.00,VWS V14.01,2013-09-19 04:24:00,
2013-09-19 00:26:00,78.3,74.6,29.60,ESE,121,0.0,0.0,88,0.00,,,0.00,VWS V14.01,2013-09-19 04:26:00,
2013-09-19 00:28:00,78.2,74.5,29.60,ESE,121,0.0,0.0,88,0.00,,,0.00,VWS V14.01,2013-09-19 04:28:00,
2013-09-19 00:30:00,78.1,74.3,29.60,ESE,121,0.0,0.0,88,0.00,,,0.00,VWS V14.01,2013-09-19 04:30:00,
2013-09-19 00:32:00,78.2,74.5,29.59,ESE,121,0.0,0.0,88,0.00,,,0.00,VWS V14.01,2013-09-19 04:32:00,
2013-09-19 00:33:00,78.3,74.6,29.59,ESE,121,0.0,0.0,88,0.00,,,0.00,VWS V14.01,2013-09-19 04:33:00,
2013-09-19 00:34:00,78.3,74.6,29.60,ESE,121,0.0,0.0,88,0.00,,,0.00,VWS V14.01,2013-09-19 04:34:00,
2013-09-19 00:36:00,78.3,74.6,29.60,ESE,121,0.0,0.0,88,0.00,,,0.00,VWS V14.01,2013-09-19 04:36:00,
2013-09-19 00:38:00,78.2,74.5,29.59,ESE,121,0.0,0.0,88,0.00,,,0.00,VWS V14.01,2013-09-19 04:38:00,
2013-09-19 00:40:00,78.1,74.5,29.59,ESE,121,0.0,0.0,89,0.00,,,0.00,VWS V14.01,2013-09-19 04:40:00,
2013-09-19 00:42:00,78.1,74.5,29.59,ESE,121,0.0,0.0,89,0.00,,,0.00,VWS V14.01,2013-09-19 04:42:00,
2013-09-19 00:43:00,78.1,74.5,29.59,ESE,121,0.0,0.0,89,0.00,,,0.00,VWS V14.01,2013-09-19 04:43:00,
2013-09-19 00:44:00,78.1,74.6,29.59,ESE,121,0.0,0.0,89,0.00,,,0.00,VWS V14.01,2013-09-19 04:44:00,
2013-09-19 00:46:00,78.0,74.6,29.59,ESE,121,0.0,0.0,89,0.00,,,0.00,VWS V14.01,2013-09-19 04:46:00,
2013-09-19 00:48:00,77.9,74.5,29.59,ESE,121,0.0,0.0,89,0.00,,,0.00,VWS V14.01,2013-09-19 04:48:00,
2013-09-19 00:50:00,77.8,74.5,29.59,ESE,121,0.0,0.0,90,0.00,,,0.00,VWS V14.01,2013-09-19 04:50:00,
2013-09-19 00:52:00,77.8,74.4,29.59,ESE,121,0.0,0.0,89,0.00,,,0.00,VWS V14.01,2013-09-19 04:52:00,
2013-09-19 00:53:00,77.8,74.4,29.59,ESE,121,0.0,0.0,89,0.00,,,0.00,VWS V14.01,2013-09-19 04:53:00,
2013-09-19 00:54:00,77.8,74.4,29.59,ESE,121,0.0,0.0,89,0.00,,,0.00,VWS V14.01,2013-09-19 04:54:00,
2013-09-19 00:56:00,77.9,74.5,29.59,ESE,121,0.0,0.0,89,0.00,,,0.00,VWS V14.01,2013-09-19 04:56:00,
2013-09-19 00:58:00,77.8,74.3,29.59,ESE,121,0.0,0.0,89,0.00,,,0.00,VWS V14.01,2013-09-19 04:58:00,
2013-09-19 01:00:00,77.9,74.3,29.59,ESE,121,0.0,0.0,89,0.00,,,0.00,VWS V14.01,2013-09-19 05:00:00,
2013-09-19 01:02:00,77.8,74.2,29.59,ESE,121,0.0,0.0,89,0.00,,,0.00,VWS V14.01,2013-09-19 05:02:00,
2013-09-19 01:03:00,77.8,74.2,29.59,ESE,121,0.0,0.0,89,0.00,,,0.00,VWS V14.01,2013-09-19 05:03:00,
2013-09-19 01:04:00,77.8,74.2,29.59,ESE,121,0.0,0.0,89,0.00,,,0.00,VWS V14.01,2013-09-19 05:04:00,
2013-09-19 01:06:00,77.9,74.3,29.59,ESE,121,0.0,0.0,89,0.00,,,0.00,VWS V14.01,2013-09-19 05:06:00,
2013-09-19 01:08:00,77.7,74.1,29.59,ESE,121,0.0,0.0,89,0.00,,,0.00,VWS V14.01,2013-09-19 05:08:00,
2013-09-19 01:10:00,77.5,73.9,29.58,ESE,121,0.0,0.0,89,0.00,,,0.00,VWS V14.01,2013-09-19 05:10:00,
2013-09-19 01:12:00,77.4,73.8,29.58,ESE,121,0.0,0.0,89,0.00,,,0.00,VWS V14.01,2013-09-19 05:12:00,
2013-09-19 01:13:00,77.4,73.8,29.58,ESE,121,0.0,0.0,89,0.00,,,0.00,VWS V14.01,2013-09-19 05:13:00,
2013-09-19 01:14:00,77.7,74.1,29.58,ESE,121,0.0,0.0,89,0.00,,,0.00,VWS V14.01,2013-09-19 05:14:00,
2013-09-19 01:16:00,77.8,74.2,29.58,ESE,121,0.0,0.0,89,0.00,,,0.00,VWS V14.01,2013-09-19 05:16:00,
2013-09-19 01:18:00,77.5,73.9,29.58,ESE,121,0.0,0.0,89,0.00,,,0.00,VWS V14.01,2013-09-19 05:18:00,
2013-09-19 01:20:00,77.7,74.1,29.58,ESE,121,0.0,0.0,89,0.00,,,0.00,VWS V14.01,2013-09-19 05:20:00,
2013-09-19 01:22:00,77.5,73.9,29.58,ESE,121,0.0,0.0,89,0.00,,,0.00,VWS V14.01,2013-09-19 05:22:00,
2013-09-19 01:23:00,77.5,73.9,29.58,ESE,121,0.0,0.0,89,0.00,,,0.00,VWS V14.01,2013-09-19 05:23:00,
2013-09-19 01:24:00,77.7,74.1,29.58,ESE,121,0.0,0.0,89,0.00,,,0.00,VWS V14.01,2013-09-19 05:24:00,
2013-09-19 01:26:00,77.5,73.9,29.58,ESE,121,0.0,0.0,89,0.00,,,0.00,VWS V14.01,2013-09-19 05:26:00,
2013-09-19 01:28:00,77.8,74.2,29.58,ESE,121,0.0,0.0,89,0.00,,,0.00,VWS V14.01,2013-09-19 05:28:00,
2013-09-19 01:30:00,77.7,74.3,29.58,ESE,121,0.0,0.0,89,0.00,,,0.00,VWS V14.01,2013-09-19 05:30:00,
2013-09-19 01:32:00,77.4,74.0,29.58,ESE,121,0.0,0.0,89,0.00,,,0.00,VWS V14.01,2013-09-19 05:32:00,
2013-09-19 01:33:00,77.5,74.1,29.58,ESE,121,0.0,0.0,89,0.00,,,0.00,VWS V14.01,2013-09-19 05:33:00,
2013-09-19 01:34:00,77.4,74.0,29.58,ESE,121,0.0,0.0,89,0.00,,,0.00,VWS V14.01,2013-09-19 05:34:00,
2013-09-19 01:36:00,77.4,74.0,29.58,ESE,121,0.0,0.0,89,0.00,,,0.00,VWS V14.01,2013-09-19 05:36:00,
2013-09-19 01:38:00,77.3,74.0,29.58,ESE,121,0.0,0.0,90,0.00,,,0.00,VWS V14.01,2013-09-19 05:38:00,
2013-09-19 01:40:00,77.4,74.1,29.58,ESE,121,0.0,0.0,90,0.00,,,0.00,VWS V14.01,2013-09-19 05:40:00,
2013-09-19 01:42:00,77.4,74.1,29.58,ESE,121,0.0,0.0,90,0.00,,,0.00,VWS V14.01,2013-09-19 05:42:00,
2013-09-19 01:43:00,77.3,74.0,29.58,ESE,121,0.0,0.0,90,0.00,,,0.00,VWS V14.01,2013-09-19 05:43:00,
2013-09-19 01:44:00,77.4,74.1,29.58,ESE,121,0.0,0.0,90,0.00,,,0.00,VWS V14.01,2013-09-19 05:44:00,
2013-09-19 01:46:00,77.3,74.1,29.58,ESE,121,0.0,0.0,90,0.00,,,0.00,VWS V14.01,2013-09-19 05:46:00,
2013-09-19 01:48:00,77.3,74.1,29.58,ESE,121,0.0,0.0,90,0.00,,,0.00,VWS V14.01,2013-09-19 05:48:00,
2013-09-19 01:50:00,77.3,74.1,29.58,ESE,121,0.0,0.0,90,0.00,,,0.00,VWS V14.01,2013-09-19 05:50:00,
2013-09-19 01:52:00,77.2,74.0,29.57,ESE,121,0.0,0.0,90,0.00,,,0.00,VWS V14.01,2013-09-19 05:52:00,
2013-09-19 01:53:00,77.2,74.0,29.57,ESE,121,0.0,0.0,90,0.00,,,0.00,VWS V14.01,2013-09-19 05:53:00,
2013-09-19 01:54:00,77.1,73.9,29.58,ESE,121,0.0,0.0,90,0.00,,,0.00,VWS V14.01,2013-09-19 05:54:00,
2013-09-19 01:56:00,77.2,74.0,29.57,ESE,121,0.0,0.0,90,0.00,,,0.00,VWS V14.01,2013-09-19 05:56:00,
2013-09-19 01:58:00,77.3,74.1,29.57,ESE,121,0.0,0.0,90,0.00,,,0.00,VWS V14.01,2013-09-19 05:58:00,
2013-09-19 02:00:00,77.3,74.1,29.57,ESE,121,0.0,0.0,90,0.00,,,0.00,VWS V14.01,2013-09-19 06:00:00,
2013-09-19 02:02:00,77.3,74.1,29.57,ESE,121,0.0,0.0,90,0.00,,,0.00,VWS V14.01,2013-09-19 06:02:00,
2013-09-19 02:03:00,77.3,74.1,29.57,ESE,121,0.0,0.0,90,0.00,,,0.00,VWS V14.01,2013-09-19 06:03:00,
2013-09-19 02:04:00,77.3,74.1,29.57,ESE,121,0.0,0.0,90,0.00,,,0.00,VWS V14.01,2013-09-19 06:04:00,
2013-09-19 02:06:00,77.3,74.1,29.57,ESE,121,0.0,0.0,90,0.00,,,0.00,VWS V14.01,2013-09-19 06:06:00,
2013-09-19 02:08:00,77.4,74.2,29.57,ESE,121,0.0,0.0,90,0.00,,,0.00,VWS V14.01,2013-09-19 06:08:00,
2013-09-19 02:10:00,77.3,74.1,29.57,ESE,121,0.0,0.0,90,0.00,,,0.00,VWS V14.01,2013-09-19 06:10:00,
2013-09-19 02:12:00,77.3,74.2,29.57,ESE,121,0.0,0.0,90,0.00,,,0.00,VWS V14.01,2013-09-19 06:12:00,
2013-09-19 02:13:00,77.2,74.1,29.57,ESE,121,0.0,0.0,90,0.00,,,0.00,VWS V14.01,2013-09-19 06:13:00,
2013-09-19 02:14:00,77.2,74.1,29.57,ESE,121,0.0,0.0,90,0.00,,,0.00,VWS V14.01,2013-09-19 06:14:00,
2013-09-19 02:16:00,77.1,74.1,29.57,ESE,121,0.0,0.0,90,0.00,,,0.00,VWS V14.01,2013-09-19 06:16:00,
2013-09-19 02:18:00,77.2,74.2,29.57,ESE,121,0.0,0.0,90,0.00,,,0.00,VWS V14.01,2013-09-19 06:18:00,
2013-09-19 02:20:00,77.2,74.2,29.57,ESE,121,0.0,0.0,91,0.00,,,0.00,VWS V14.01,2013-09-19 06:20:00,
2013-09-19 02:22:00,77.2,74.2,29.57,ESE,121,0.0,0.0,91,0.00,,,0.00,VWS V14.01,2013-09-19 06:22:00,
2013-09-19 02:23:00,77.0,74.0,29.57,ESE,121,0.0,0.0,91,0.00,,,0.00,VWS V14.01,2013-09-19 06:23:00,
2013-09-19 02:24:00,77.0,74.1,29.56,ESE,121,0.0,0.0,91,0.00,,,0.00,VWS V14.01,2013-09-19 06:24:00,
2013-09-19 02:26:00,77.0,74.1,29.56,ESE,121,0.0,0.0,91,0.00,,,0.00,VWS V14.01,2013-09-19 06:26:00,
2013-09-19 02:27:00,76.9,74.0,29.57,ESE,121,0.0,0.0,91,0.00,,,0.00,VWS V14.01,2013-09-19 06:27:00,
2013-09-19 02:28:00,77.0,74.1,29.56,ESE,121,0.0,0.0,91,0.00,,,0.00,VWS V14.01,2013-09-19 06:28:00,
2013-09-19 02:30:00,77.1,74.2,29.56,ESE,121,0.0,0.0,91,0.00,,,0.00,VWS V14.01,2013-09-19 06:30:00,
2013-09-19 02:32:00,77.0,74.1,29.56,ESE,121,0.0,0.0,91,0.00,,,0.00,VWS V14.01,2013-09-19 06:32:00,
2013-09-19 02:34:00,77.0,74.1,29.56,ESE,121,0.0,0.0,91,0.00,,,0.00,VWS V14.01,2013-09-19 06:34:00,
2013-09-19 02:36:00,76.9,74.0,29.56,ESE,121,0.0,0.0,91,0.00,,,0.00,VWS V14.01,2013-09-19 06:36:00,
2013-09-19 02:37:00,77.0,74.1,29.56,ESE,121,0.0,0.0,91,0.00,,,0.00,VWS V14.01,2013-09-19 06:37:00,
2013-09-19 02:38:00,77.0,74.1,29.56,ESE,121,0.0,0.0,91,0.00,,,0.00,VWS V14.01,2013-09-19 06:38:00,
2013-09-19 02:40:00,77.1,74.2,29.56,ESE,121,0.0,0.0,91,0.00,,,0.00,VWS V14.01,2013-09-19 06:40:00,
2013-09-19 02:42:00,77.0,74.1,29.56,ESE,121,0.0,0.0,91,0.00,,,0.00,VWS V14.01,2013-09-19 06:42:00,
2013-09-19 02:44:00,77.0,74.1,29.56,ESE,121,0.0,0.0,91,0.00,,,0.00,VWS V14.01,2013-09-19 06:44:00,
2013-09-19 02:46:00,77.0,74.1,29.56,ESE,121,0.0,0.0,91,0.00,,,0.00,VWS V14.01,2013-09-19 06:46:00,
2013-09-19 02:47:00,77.0,74.1,29.56,ESE,121,0.0,0.0,91,0.00,,,0.00,VWS V14.01,2013-09-19 06:47:00,
2013-09-19 02:48:00,77.0,74.1,29.56,ESE,121,0.0,0.0,91,0.00,,,0.00,VWS V14.01,2013-09-19 06:48:00,
2013-09-19 02:50:00,77.0,74.1,29.56,ESE,121,0.0,0.0,91,0.00,,,0.00,VWS V14.01,2013-09-19 06:50:00,
2013-09-19 02:52:00,77.1,74.2,29.56,ESE,121,0.0,0.0,91,0.00,,,0.00,VWS V14.01,2013-09-19 06:52:00,
2013-09-19 02:54:00,77.0,74.2,29.56,ESE,121,0.0,0.0,91,0.00,,,0.00,VWS V14.01,2013-09-19 06:54:00,
2013-09-19 02:56:00,77.0,74.2,29.56,ESE,121,0.0,0.0,91,0.00,,,0.00,VWS V14.01,2013-09-19 06:56:00,
2013-09-19 02:57:00,77.0,74.2,29.56,ESE,121,0.0,0.0,91,0.00,,,0.00,VWS V14.01,2013-09-19 06:57:00,
2013-09-19 02:58:00,77.0,74.2,29.56,ESE,121,0.0,0.0,91,0.00,,,0.00,VWS V14.01,2013-09-19 06:58:00,
2013-09-19 03:00:00,77.0,74.2,29.56,ESE,121,0.0,0.0,91,0.00,,,0.00,VWS V14.01,2013-09-19 07:00:00,
2013-09-19 03:02:00,77.1,74.3,29.56,ESE,121,0.0,0.0,91,0.00,,,0.00,VWS V14.01,2013-09-19 07:02:00,
2013-09-19 03:04:00,77.1,74.3,29.56,ESE,121,0.0,0.0,91,0.00,,,0.00,VWS V14.01,2013-09-19 07:04:00,
2013-09-19 03:06:00,76.9,74.1,29.56,ESE,121,0.0,0.0,91,0.00,,,0.00,VWS V14.01,2013-09-19 07:06:00,
2013-09-19 03:07:00,76.9,74.1,29.56,ESE,121,0.0,0.0,91,0.00,,,0.00,VWS V14.01,2013-09-19 07:07:00,
2013-09-19 03:08:00,77.0,74.2,29.56,ESE,121,0.0,0.0,91,0.00,,,0.00,VWS V14.01,2013-09-19 07:08:00,
2013-09-19 03:10:00,77.0,74.2,29.56,ESE,121,0.0,0.0,91,0.00,,,0.00,VWS V14.01,2013-09-19 07:10:00,
2013-09-19 03:12:00,77.0,74.2,29.56,ESE,121,0.0,0.0,91,0.00,,,0.00,VWS V14.01,2013-09-19 07:12:00,
2013-09-19 03:14:00,77.1,74.3,29.56,ESE,121,0.0,0.0,91,0.00,,,0.00,VWS V14.01,2013-09-19 07:14:00,
2013-09-19 03:16:00,77.0,74.2,29.56,ESE,121,0.0,0.0,91,0.00,,,0.00,VWS V14.01,2013-09-19 07:16:00,
2013-09-19 03:17:00,76.9,74.1,29.56,ESE,121,0.0,0.0,91,0.00,,,0.00,VWS V14.01,2013-09-19 07:17:00,
2013-09-19 03:18:00,76.9,74.1,29.56,ESE,121,0.0,0.0,91,0.00,,,0.00,VWS V14.01,2013-09-19 07:18:00,
2013-09-19 03:20:00,76.9,74.1,29.55,ESE,121,0.0,0.0,91,0.00,,,0.00,VWS V14.01,2013-09-19 07:20:00,
2013-09-19 03:22:00,76.9,74.1,29.55,ESE,121,0.0,0.0,91,0.00,,,0.00,VWS V14.01,2013-09-19 07:22:00,
2013-09-19 03:24:00,76.9,74.2,29.56,ESE,121,0.0,0.0,91,0.00,,,0.00,VWS V14.01,2013-09-19 07:24:00,
2013-09-19 03:26:00,76.9,74.1,29.56,ESE,121,0.0,0.0,91,0.00,,,0.00,VWS V14.01,2013-09-19 07:26:00,
2013-09-19 03:27:00,76.9,74.1,29.55,ESE,121,0.0,0.0,91,0.00,,,0.00,VWS V14.01,2013-09-19 07:27:00,
2013-09-19 03:28:00,76.9,74.2,29.56,ESE,121,0.0,0.0,91,0.00,,,0.00,VWS V14.01,2013-09-19 07:28:00,
2013-09-19 03:30:00,76.9,74.2,29.56,ESE,121,0.0,0.0,91,0.00,,,0.00,VWS V14.01,2013-09-19 07:30:00,
2013-09-19 03:32:00,76.9,74.2,29.55,ESE,121,0.0,0.0,91,0.00,,,0.00,VWS V14.01,2013-09-19 07:32:00,
2013-09-19 03:34:00,76.9,74.2,29.55,ESE,121,0.0,0.0,91,0.00,,,0.00,VWS V14.01,2013-09-19 07:34:00,
2013-09-19 03:36:00,76.9,74.2,29.55,ESE,121,0.0,0.0,91,0.00,,,0.00,VWS V14.01,2013-09-19 07:36:00,
2013-09-19 03:37:00,77.0,74.3,29.55,ESE,121,0.0,0.0,91,0.00,,,0.00,VWS V14.01,2013-09-19 07:37:00,
2013-09-19 03:38:00,76.9,74.2,29.55,ESE,121,0.0,0.0,91,0.00,,,0.00,VWS V14.01,2013-09-19 07:38:00,
2013-09-19 03:40:00,76.9,74.2,29.55,ESE,121,0.0,0.0,91,0.00,,,0.00,VWS V14.01,2013-09-19 07:40:00,
2013-09-19 03:42:00,76.9,74.2,29.55,ESE,121,0.0,0.0,91,0.00,,,0.00,VWS V14.01,2013-09-19 07:42:00,
2013-09-19 03:44:00,77.0,74.3,29.55,ESE,121,0.0,0.0,91,0.00,,,0.00,VWS V14.01,2013-09-19 07:44:00,
2013-09-19 03:46:00,77.0,74.3,29.55,ESE,121,0.0,0.0,91,0.00,,,0.00,VWS V14.01,2013-09-19 07:46:00,
2013-09-19 03:47:00,76.9,74.2,29.55,ESE,121,0.0,0.0,91,0.00,,,0.00,VWS V14.01,2013-09-19 07:47:00,
2013-09-19 03:48:00,76.9,74.2,29.55,ESE,121,0.0,0.0,91,0.00,,,0.00,VWS V14.01,2013-09-19 07:48:00,
2013-09-19 03:50:00,76.9,74.2,29.55,ESE,121,0.0,0.0,91,0.00,,,0.00,VWS V14.01,2013-09-19 07:50:00,
2013-09-19 03:52:00,76.9,74.2,29.55,ESE,121,0.0,0.0,91,0.00,,,0.00,VWS V14.01,2013-09-19 07:52:00,
2013-09-19 03:54:00,77.0,74.3,29.55,ESE,121,0.0,0.0,91,0.00,,,0.00,VWS V14.01,2013-09-19 07:54:00,
2013-09-19 03:56:00,77.0,74.2,29.55,ESE,121,0.0,0.0,91,0.00,,,0.00,VWS V14.01,2013-09-19 07:56:00,
2013-09-19 03:57:00,76.9,74.2,29.55,ESE,121,0.0,0.0,91,0.00,,,0.00,VWS V14.01,2013-09-19 07:57:00,
2013-09-19 03:58:00,76.9,74.1,29.55,ESE,121,0.0,0.0,91,0.00,,,0.00,VWS V14.01,2013-09-19 07:58:00,
2013-09-19 04:00:00,76.9,74.2,29.55,ESE,121,0.0,0.0,91,0.00,,,0.00,VWS V14.01,2013-09-19 08:00:00,
2013-09-19 04:02:00,76.9,74.2,29.55,ESE,121,0.0,0.0,91,0.00,,,0.00,VWS V14.01,2013-09-19 08:02:00,
2013-09-19 04:04:00,77.0,74.3,29.55,ESE,121,0.0,0.0,91,0.00,,,0.00,VWS V14.01,2013-09-19 08:04:00,
2013-09-19 04:06:00,76.9,74.2,29.55,ESE,121,0.0,0.0,91,0.00,,,0.00,VWS V14.01,2013-09-19 08:06:00,
2013-09-19 04:07:00,76.8,74.1,29.55,ESE,121,0.0,0.0,91,0.00,,,0.00,VWS V14.01,2013-09-19 08:07:00,
2013-09-19 04:08:00,76.8,74.1,29.55,ESE,121,0.0,0.0,91,0.00,,,0.00,VWS V14.01,2013-09-19 08:08:00,
2013-09-19 04:10:00,76.7,74.0,29.55,ESE,121,0.0,0.0,91,0.00,,,0.00,VWS V14.01,2013-09-19 08:10:00,
2013-09-19 04:12:00,76.7,74.0,29.55,ESE,121,0.0,0.0,91,0.00,,,0.00,VWS V14.01,2013-09-19 08:12:00,
2013-09-19 04:14:00,76.5,73.8,29.55,ESE,121,0.0,0.0,92,0.00,,,0.00,VWS V14.01,2013-09-19 08:14:00,
2013-09-19 04:16:00,76.6,74.0,29.55,ESE,121,0.0,0.0,92,0.00,,,0.00,VWS V14.01,2013-09-19 08:16:00,
2013-09-19 04:17:00,76.4,73.8,29.55,ESE,121,0.0,0.0,92,0.00,,,0.00,VWS V14.01,2013-09-19 08:17:00,
2013-09-19 04:18:00,76.4,73.8,29.55,ESE,121,0.0,0.0,92,0.00,,,0.00,VWS V14.01,2013-09-19 08:18:00,
2013-09-19 04:20:00,76.5,73.9,29.54,ESE,121,0.0,0.0,92,0.00,,,0.00,VWS V14.01,2013-09-19 08:20:00,
2013-09-19 04:22:00,76.5,73.9,29.55,ESE,121,0.0,0.0,92,0.00,,,0.00,VWS V14.01,2013-09-19 08:22:00,
2013-09-19 04:24:00,76.6,74.0,29.55,ESE,121,0.0,0.0,92,0.00,,,0.00,VWS V14.01,2013-09-19 08:24:00,
2013-09-19 04:26:00,76.7,74.1,29.55,ESE,121,0.0,0.0,92,0.00,,,0.00,VWS V14.01,2013-09-19 08:26:00,
2013-09-19 04:27:00,76.5,73.9,29.55,ESE,121,0.0,0.0,92,0.00,,,0.00,VWS V14.01,2013-09-19 08:27:00,
2013-09-19 04:28:00,76.6,74.0,29.55,ESE,121,0.0,0.0,92,0.00,,,0.00,VWS V14.01,2013-09-19 08:28:00,
2013-09-19 04:30:00,76.6,74.0,29.55,ESE,121,0.0,0.0,92,0.00,,,0.00,VWS V14.01,2013-09-19 08:30:00,
2013-09-19 04:32:00,76.5,73.9,29.55,ESE,121,0.0,0.0,92,0.00,,,0.00,VWS V14.01,2013-09-19 08:32:00,
2013-09-19 04:34:00,76.7,74.1,29.55,ESE,121,0.0,0.0,92,0.00,,,0.00,VWS V14.01,2013-09-19 08:34:00,
2013-09-19 04:36:00,76.8,74.2,29.55,ESE,121,0.0,0.0,92,0.00,,,0.00,VWS V14.01,2013-09-19 08:36:00,
2013-09-19 04:37:00,76.7,74.1,29.55,ESE,121,0.0,0.0,92,0.00,,,0.00,VWS V14.01,2013-09-19 08:37:00,
2013-09-19 04:38:00,76.8,74.1,29.55,ESE,121,0.0,0.0,92,0.00,,,0.00,VWS V14.01,2013-09-19 08:38:00,
2013-09-19 04:40:00,76.7,74.0,29.55,ESE,121,0.0,0.0,92,0.00,,,0.00,VWS V14.01,2013-09-19 08:40:00,
2013-09-19 04:42:00,76.7,74.0,29.55,ESE,121,0.0,0.0,92,0.00,,,0.00,VWS V14.01,2013-09-19 08:42:00,
2013-09-19 04:44:00,76.8,74.1,29.55,ESE,121,0.0,0.0,91,0.00,,,0.00,VWS V14.01,2013-09-19 08:44:00,
2013-09-19 04:46:00,76.9,74.2,29.55,ESE,121,0.0,0.0,91,0.00,,,0.00,VWS V14.01,2013-09-19 08:46:00,
2013-09-19 04:47:00,76.8,74.1,29.55,ESE,121,0.0,0.0,91,0.00,,,0.00,VWS V14.01,2013-09-19 08:47:00,
2013-09-19 04:48:00,76.8,74.1,29.55,ESE,121,0.0,0.0,91,0.00,,,0.00,VWS V14.01,2013-09-19 08:48:00,
2013-09-19 04:50:00,76.8,74.1,29.55,ESE,121,0.0,0.0,91,0.00,,,0.00,VWS V14.01,2013-09-19 08:50:00,
2013-09-19 04:52:00,76.8,74.1,29.55,ESE,121,0.0,0.0,91,0.00,,,0.00,VWS V14.01,2013-09-19 08:52:00,
2013-09-19 04:54:00,76.8,74.1,29.55,ESE,121,0.0,0.0,92,0.00,,,0.00,VWS V14.01,2013-09-19 08:54:00,
2013-09-19 04:56:00,76.7,74.0,29.55,ESE,121,0.0,0.0,92,0.00,,,0.00,VWS V14.01,2013-09-19 08:56:00,
2013-09-19 04:57:00,76.7,74.0,29.55,ESE,121,0.0,0.0,92,0.00,,,0.00,VWS V14.01,2013-09-19 08:57:00,
2013-09-19 04:58:00,76.7,74.0,29.55,ESE,121,0.0,0.0,92,0.00,,,0.00,VWS V14.01,2013-09-19 08:58:00,
2013-09-19 05:00:00,76.7,74.0,29.55,ESE,121,0.0,0.0,92,0.00,,,0.00,VWS V14.01,2013-09-19 09:00:00,
2013-09-19 05:02:00,76.7,74.0,29.55,ESE,121,0.0,0.0,92,0.00,,,0.00,VWS V14.01,2013-09-19 09:02:00,
2013-09-19 05:04:00,76.7,74.1,29.55,ESE,121,0.0,0.0,92,0.00,,,0.00,VWS V14.01,2013-09-19 09:04:00,
2013-09-19 05:06:00,76.7,74.1,29.55,ESE,121,0.0,0.0,92,0.00,,,0.00,VWS V14.01,2013-09-19 09:06:00,
2013-09-19 05:07:00,76.6,74.0,29.55,ESE,121,0.0,0.0,92,0.00,,,0.00,VWS V14.01,2013-09-19 09:07:00,
2013-09-19 05:08:00,76.8,74.2,29.55,ESE,121,0.0,0.0,92,0.00,,,0.00,VWS V14.01,2013-09-19 09:08:00,
2013-09-19 05:10:00,76.7,74.1,29.55,ESE,121,0.0,0.0,92,0.00,,,0.00,VWS V14.01,2013-09-19 09:10:00,
2013-09-19 05:12:00,76.7,74.1,29.55,ESE,121,0.0,0.0,92,0.00,,,0.00,VWS V14.01,2013-09-19 09:12:00,
2013-09-19 05:14:00,76.7,74.1,29.55,ESE,121,0.0,0.0,92,0.00,,,0.00,VWS V14.01,2013-09-19 09:14:00,
2013-09-19 05:16:00,76.7,74.1,29.55,ESE,121,0.0,0.0,92,0.00,,,0.00,VWS V14.01,2013-09-19 09:16:00,
2013-09-19 05:17:00,76.7,74.1,29.55,ESE,121,0.0,0.0,92,0.00,,,0.00,VWS V14.01,2013-09-19 09:17:00,
2013-09-19 05:18:00,76.8,74.2,29.55,ESE,121,0.0,0.0,92,0.00,,,0.00,VWS V14.01,2013-09-19 09:18:00,
2013-09-19 05:20:00,76.7,74.1,29.55,ESE,121,0.0,0.0,92,0.00,,,0.00,VWS V14.01,2013-09-19 09:20:00,
2013-09-19 05:22:00,76.6,74.0,29.55,ESE,121,0.0,0.0,92,0.00,,,0.00,VWS V14.01,2013-09-19 09:22:00,
2013-09-19 05:24:00,76.6,74.0,29.55,ESE,121,0.0,0.0,92,0.00,,,0.00,VWS V14.01,2013-09-19 09:24:00,
2013-09-19 05:26:00,76.6,74.0,29.55,ESE,121,0.0,0.0,92,0.00,,,0.00,VWS V14.01,2013-09-19 09:26:00,
2013-09-19 05:27:00,76.7,74.1,29.55,ESE,121,0.0,0.0,92,0.00,,,0.00,VWS V14.01,2013-09-19 09:27:00,
2013-09-19 05:28:00,76.7,74.1,29.55,ESE,121,0.0,0.0,92,0.00,,,0.00,VWS V14.01,2013-09-19 09:28:00,
2013-09-19 05:30:00,76.7,74.1,29.55,ESE,121,0.0,0.0,92,0.00,,,0.00,VWS V14.01,2013-09-19 09:30:00,
2013-09-19 05:32:00,76.5,73.9,29.55,ESE,121,0.0,0.0,92,0.00,,,0.00,VWS V14.01,2013-09-19 09:32:00,
2013-09-19 05:34:00,76.5,73.9,29.55,ESE,121,0.0,0.0,92,0.00,,,0.00,VWS V14.01,2013-09-19 09:34:00,
2013-09-19 05:36:00,76.4,73.8,29.55,ESE,121,0.0,0.0,92,0.00,,,0.00,VWS V14.01,2013-09-19 09:36:00,
2013-09-19 05:37:00,76.5,73.9,29.55,ESE,121,0.0,0.0,92,0.00,,,0.00,VWS V14.01,2013-09-19 09:37:00,
2013-09-19 05:38:00,76.4,73.8,29.55,ESE,121,0.0,0.0,92,0.00,,,0.00,VWS V14.01,2013-09-19 09:38:00,
2013-09-19 05:40:00,76.3,73.7,29.55,ESE,121,0.0,0.0,92,0.00,,,0.00,VWS V14.01,2013-09-19 09:40:00,
2013-09-19 05:42:00,76.4,73.8,29.55,ESE,121,0.0,0.0,92,0.00,,,0.00,VWS V14.01,2013-09-19 09:42:00,
2013-09-19 05:44:00,76.4,73.8,29.55,ESE,121,0.0,0.0,92,0.00,,,0.00,VWS V14.01,2013-09-19 09:44:00,
2013-09-19 05:46:00,76.4,73.8,29.55,ESE,121,0.0,0.0,92,0.00,,,0.00,VWS V14.01,2013-09-19 09:46:00,
2013-09-19 05:47:00,76.4,73.8,29.55,ESE,121,0.0,0.0,92,0.00,,,0.00,VWS V14.01,2013-09-19 09:47:00,
2013-09-19 05:48:00,76.4,73.8,29.55,ESE,121,0.0,0.0,92,0.00,,,0.00,VWS V14.01,2013-09-19 09:48:00,
2013-09-19 05:50:00,76.5,73.9,29.55,ESE,121,0.0,0.0,92,0.00,,,0.00,VWS V14.01,2013-09-19 09:50:00,
2013-09-19 05:52:00,76.4,73.8,29.55,ESE,121,0.0,0.0,92,0.00,,,0.00,VWS V14.01,2013-09-19 09:52:00,
2013-09-19 05:54:00,76.4,73.8,29.55,ESE,121,0.0,0.0,92,0.00,,,0.00,VWS V14.01,2013-09-19 09:54:00,
2013-09-19 05:56:00,76.6,74.1,29.55,ESE,121,0.0,0.0,92,0.00,,,0.00,VWS V14.01,2013-09-19 09:56:00,
2013-09-19 05:57:00,76.4,73.9,29.55,ESE,121,0.0,0.0,92,0.00,,,0.00,VWS V14.01,2013-09-19 09:57:00,
2013-09-19 05:58:00,76.5,74.0,29.55,ESE,121,0.0,0.0,92,0.00,,,0.00,VWS V14.01,2013-09-19 09:58:00,
2013-09-19 06:00:00,76.5,74.0,29.56,ESE,121,0.0,0.0,92,0.00,,,0.00,VWS V14.01,2013-09-19 10:00:00,
2013-09-19 06:02:00,76.6,74.1,29.55,ESE,121,0.0,0.0,92,0.00,,,0.00,VWS V14.01,2013-09-19 10:02:00,
2013-09-19 06:04:00,76.6,74.1,29.56,ESE,121,0.0,0.0,92,0.00,,,0.00,VWS V14.01,2013-09-19 10:04:00,
2013-09-19 06:06:00,76.7,74.1,29.56,ESE,121,0.0,0.0,92,0.00,,,0.00,VWS V14.01,2013-09-19 10:06:00,
2013-09-19 06:07:00,76.6,74.0,29.56,ESE,121,0.0,0.0,92,0.00,,,0.00,VWS V14.01,2013-09-19 10:07:00,
2013-09-19 06:08:00,76.7,74.1,29.56,ESE,121,0.0,0.0,92,0.00,,,0.00,VWS V14.01,2013-09-19 10:08:00,
2013-09-19 06:10:00,76.7,74.2,29.56,ESE,121,0.0,0.0,92,0.00,,,0.00,VWS V14.01,2013-09-19 10:10:00,
2013-09-19 06:12:00,76.6,74.1,29.55,ESE,121,0.0,0.0,92,0.00,,,0.00,VWS V14.01,2013-09-19 10:12:00,
2013-09-19 06:14:00,76.5,74.0,29.55,ESE,121,0.0,0.0,92,0.00,,,0.00,VWS V14.01,2013-09-19 10:14:00,
2013-09-19 06:16:00,76.4,73.9,29.56,ESE,121,0.0,0.0,92,0.00,,,0.00,VWS V14.01,2013-09-19 10:16:00,
2013-09-19 06:17:00,76.6,74.1,29.56,ESE,121,0.0,0.0,92,0.00,,,0.00,VWS V14.01,2013-09-19 10:17:00,
2013-09-19 06:18:00,76.3,73.8,29.55,ESE,121,0.0,0.0,92,0.00,,,0.00,VWS V14.01,2013-09-19 10:18:00,
2013-09-19 06:20:00,76.3,73.8,29.55,ESE,121,0.0,0.0,92,0.00,,,0.00,VWS V14.01,2013-09-19 10:20:00,
2013-09-19 06:22:00,76.4,74.0,29.55,ESE,121,0.0,0.0,92,0.00,,,0.00,VWS V14.01,2013-09-19 10:22:00,
2013-09-19 06:24:00,76.4,73.9,29.55,ESE,121,0.0,0.0,92,0.00,,,0.00,VWS V14.01,2013-09-19 10:24:00,
2013-09-19 06:26:00,76.4,73.9,29.56,ESE,121,0.0,0.0,92,0.00,,,0.00,VWS V14.01,2013-09-19 10:26:00,
2013-09-19 06:27:00,76.4,73.9,29.56,ESE,121,0.0,0.0,92,0.00,,,0.00,VWS V14.01,2013-09-19 10:27:00,
2013-09-19 06:28:00,76.4,73.9,29.56,ESE,121,0.0,0.0,92,0.00,,,0.00,VWS V14.01,2013-09-19 10:28:00,
2013-09-19 06:30:00,76.5,74.0,29.56,ESE,121,0.0,0.0,92,0.00,,,0.00,VWS V14.01,2013-09-19 10:30:00,
2013-09-19 06:32:00,76.7,74.2,29.56,ESE,121,0.0,0.0,92,0.00,,,0.00,VWS V14.01,2013-09-19 10:32:00,
2013-09-19 06:34:00,76.5,74.0,29.56,ESE,121,0.0,0.0,92,0.00,,,0.00,VWS V14.01,2013-09-19 10:34:00,
2013-09-19 06:36:00,76.5,74.0,29.56,ESE,121,0.0,0.0,92,0.00,,,0.00,VWS V14.01,2013-09-19 10:36:00,
2013-09-19 06:37:00,76.4,73.9,29.56,ESE,121,0.0,0.0,92,0.00,,,0.00,VWS V14.01,2013-09-19 10:37:00,
2013-09-19 06:38:00,76.7,74.2,29.56,ESE,121,0.0,0.0,92,0.00,,,0.00,VWS V14.01,2013-09-19 10:38:00,
2013-09-19 06:40:00,76.6,74.1,29.56,ESE,121,0.0,0.0,92,0.00,,,0.00,VWS V14.01,2013-09-19 10:40:00,
2013-09-19 06:42:00,76.6,74.1,29.56,ESE,121,0.0,0.0,92,0.00,,,0.00,VWS V14.01,2013-09-19 10:42:00,
2013-09-19 06:44:00,76.6,74.1,29.56,ESE,121,0.0,0.0,92,0.00,,,0.00,VWS V14.01,2013-09-19 10:44:00,
2013-09-19 06:46:00,76.4,73.9,29.56,ESE,121,0.0,0.0,92,0.00,,,0.00,VWS V14.01,2013-09-19 10:46:00,
2013-09-19 06:47:00,76.6,74.1,29.56,ESE,121,0.0,0.0,92,0.00,,,0.00,VWS V14.01,2013-09-19 10:47:00,
2013-09-19 06:48:00,76.6,74.1,29.56,ESE,121,0.0,0.0,92,0.00,,,0.00,VWS V14.01,2013-09-19 10:48:00,
2013-09-19 06:50:00,76.4,73.9,29.56,ESE,121,0.0,0.0,92,0.00,,,0.00,VWS V14.01,2013-09-19 10:50:00,
2013-09-19 06:52:00,76.6,74.1,29.56,ESE,121,0.0,0.0,92,0.00,,,0.00,VWS V14.01,2013-09-19 10:52:00,
2013-09-19 06:53:00,76.4,73.9,29.56,ESE,121,0.0,0.0,92,0.00,,,0.00,VWS V14.01,2013-09-19 10:53:00,
2013-09-19 06:54:00,76.5,74.0,29.56,ESE,121,0.0,0.0,92,0.00,,,0.00,VWS V14.01,2013-09-19 10:54:00,
2013-09-19 06:56:00,76.4,73.9,29.56,ESE,121,0.0,0.0,92,0.00,,,0.00,VWS V14.01,2013-09-19 10:56:00,
2013-09-19 06:58:00,76.6,74.1,29.56,ESE,121,0.0,0.0,92,0.00,,,0.00,VWS V14.01,2013-09-19 10:58:00,
2013-09-19 07:00:00,76.5,74.0,29.56,ESE,121,0.0,0.0,92,0.00,,,0.00,VWS V14.01,2013-09-19 11:00:00,
2013-09-19 07:02:00,76.3,73.8,29.56,ESE,121,0.0,0.0,92,0.00,,,0.00,VWS V14.01,2013-09-19 11:02:00,
2013-09-19 07:03:00,76.3,73.8,29.56,ESE,121,0.0,0.0,92,0.00,,,0.00,VWS V14.01,2013-09-19 11:03:00,
2013-09-19 07:04:00,76.3,73.8,29.56,ESE,121,0.0,0.0,92,0.00,,,0.00,VWS V14.01,2013-09-19 11:04:00,
2013-09-19 07:06:00,76.4,73.9,29.56,ESE,121,0.0,0.0,92,0.00,,,0.00,VWS V14.01,2013-09-19 11:06:00,
2013-09-19 07:08:00,76.4,73.9,29.56,ESE,121,0.0,0.0,92,0.00,,,0.00,VWS V14.01,2013-09-19 11:08:00,
2013-09-19 07:10:00,76.2,73.7,29.56,ESE,121,0.0,0.0,92,0.00,,,0.00,VWS V14.01,2013-09-19 11:10:00,
2013-09-19 07:12:00,76.3,73.8,29.56,ESE,121,0.0,0.0,92,0.00,,,0.00,VWS V14.01,2013-09-19 11:12:00,
2013-09-19 07:13:00,76.4,73.9,29.56,ESE,121,0.0,0.0,92,0.00,,,0.00,VWS V14.01,2013-09-19 11:13:00,
2013-09-19 07:14:00,76.3,73.8,29.56,ESE,121,0.0,0.0,92,0.00,,,0.00,VWS V14.01,2013-09-19 11:14:00,
2013-09-19 07:16:00,76.3,73.8,29.56,ESE,121,0.0,0.0,92,0.00,,,0.00,VWS V14.01,2013-09-19 11:16:00,
2013-09-19 07:18:00,76.2,73.7,29.56,ESE,121,0.0,0.0,92,0.00,,,0.00,VWS V14.01,2013-09-19 11:18:00,
2013-09-19 07:20:00,76.4,73.9,29.56,ESE,121,0.0,0.0,92,0.00,,,0.00,VWS V14.01,2013-09-19 11:20:00,
2013-09-19 07:22:00,76.4,73.9,29.56,ESE,121,0.0,0.0,92,0.00,,,0.00,VWS V14.01,2013-09-19 11:22:00,
2013-09-19 07:23:00,76.5,74.0,29.56,ESE,121,0.0,0.0,92,0.00,,,0.00,VWS V14.01,2013-09-19 11:23:00,
2013-09-19 07:24:00,76.7,74.1,29.56,ESE,121,0.0,0.0,92,0.00,,,0.00,VWS V14.01,2013-09-19 11:24:00,
2013-09-19 07:26:00,76.6,74.0,29.57,ESE,121,0.0,0.0,92,0.00,,,0.00,VWS V14.01,2013-09-19 11:26:00,
2013-09-19 07:28:00,76.4,73.8,29.57,ESE,121,0.0,0.0,92,0.00,,,0.00,VWS V14.01,2013-09-19 11:28:00,
2013-09-19 07:30:00,76.6,74.0,29.57,ESE,121,0.0,0.0,92,0.00,,,0.00,VWS V14.01,2013-09-19 11:30:00,
2013-09-19 07:32:00,76.5,73.9,29.57,ESE,121,0.0,0.0,92,0.00,,,0.00,VWS V14.01,2013-09-19 11:32:00,
2013-09-19 07:33:00,76.5,73.9,29.57,ESE,121,0.0,0.0,92,0.00,,,0.00,VWS V14.01,2013-09-19 11:33:00,
2013-09-19 07:34:00,76.7,74.1,29.57,ESE,121,0.0,0.0,92,0.00,,,0.00,VWS V14.01,2013-09-19 11:34:00,
2013-09-19 07:36:00,76.7,74.1,29.57,ESE,121,0.0,0.0,92,0.00,,,0.00,VWS V14.01,2013-09-19 11:36:00,
2013-09-19 07:37:00,76.7,74.1,29.57,ESE,121,0.0,0.0,92,0.00,,,0.00,VWS V14.01,2013-09-19 11:37:00,
2013-09-19 07:38:00,76.7,74.1,29.57,ESE,121,0.0,0.0,92,0.00,,,0.00,VWS V14.01,2013-09-19 11:38:00,
2013-09-19 07:40:00,76.6,74.0,29.57,ESE,121,0.0,0.0,92,0.00,,,0.00,VWS V14.01,2013-09-19 11:40:00,
2013-09-19 07:42:00,76.7,74.1,29.57,ESE,121,0.0,0.0,92,0.00,,,0.00,VWS V14.01,2013-09-19 11:42:00,
2013-09-19 07:44:00,76.7,74.1,29.57,ESE,121,0.0,0.0,92,0.00,,,0.00,VWS V14.01,2013-09-19 11:44:00,
2013-09-19 07:46:00,76.7,74.1,29.57,ESE,121,0.0,0.0,92,0.00,,,0.00,VWS V14.01,2013-09-19 11:46:00,
2013-09-19 07:47:00,76.8,74.2,29.57,ESE,121,0.0,0.0,92,0.00,,,0.00,VWS V14.01,2013-09-19 11:47:00,
2013-09-19 07:48:00,76.7,74.1,29.57,ESE,121,0.0,0.0,92,0.00,,,0.00,VWS V14.01,2013-09-19 11:48:00,
2013-09-19 07:50:00,76.8,74.2,29.57,ESE,121,0.0,0.0,92,0.00,,,0.00,VWS V14.01,2013-09-19 11:50:00,
2013-09-19 07:52:00,76.8,74.2,29.58,ESE,121,0.0,0.0,92,0.00,,,0.00,VWS V14.01,2013-09-19 11:52:00,
2013-09-19 07:54:00,76.8,74.2,29.58,ESE,121,0.0,0.0,92,0.00,,,0.00,VWS V14.01,2013-09-19 11:54:00,
2013-09-19 07:56:00,76.9,74.3,29.58,ESE,121,0.0,0.0,92,0.00,,,0.00,VWS V14.01,2013-09-19 11:56:00,
2013-09-19 07:57:00,76.8,74.2,29.58,ESE,121,0.0,0.0,92,0.00,,,0.00,VWS V14.01,2013-09-19 11:57:00,
2013-09-19 07:58:00,76.8,74.3,29.58,ESE,121,0.0,0.0,92,0.00,,,0.00,VWS V14.01,2013-09-19 11:58:00,
2013-09-19 08:00:00,76.9,74.4,29.58,ESE,121,0.0,0.0,92,0.00,,,0.00,VWS V14.01,2013-09-19 12:00:00,
2013-09-19 08:02:00,77.0,74.5,29.58,ESE,121,0.0,0.0,92,0.00,,,0.00,VWS V14.01,2013-09-19 12:02:00,
2013-09-19 08:04:00,76.9,74.4,29.58,ESE,121,0.0,0.0,92,0.00,,,0.00,VWS V14.01,2013-09-19 12:04:00,
2013-09-19 08:06:00,77.1,74.6,29.58,ESE,121,0.0,0.0,92,0.00,,,0.00,VWS V14.01,2013-09-19 12:06:00,
2013-09-19 08:07:00,77.0,74.5,29.58,ESE,121,0.0,0.0,92,0.00,,,0.00,VWS V14.01,2013-09-19 12:07:00,
2013-09-19 08:08:00,77.1,74.6,29.58,ESE,121,0.0,0.0,92,0.00,,,0.00,VWS V14.01,2013-09-19 12:08:00,
2013-09-19 08:10:00,77.0,74.5,29.58,ESE,121,0.0,0.0,92,0.00,,,0.00,VWS V14.01,2013-09-19 12:10:00,
2013-09-19 08:12:00,77.2,74.7,29.58,ESE,121,0.0,0.0,92,0.00,,,0.00,VWS V14.01,2013-09-19 12:12:00,
2013-09-19 08:14:00,77.2,74.6,29.58,ESE,121,0.0,0.0,92,0.00,,,0.00,VWS V14.01,2013-09-19 12:14:00,
2013-09-19 08:16:00,77.4,74.8,29.58,ESE,121,0.0,0.0,92,0.00,,,0.00,VWS V14.01,2013-09-19 12:16:00,
2013-09-19 08:17:00,77.4,74.8,29.58,ESE,121,0.0,0.0,92,0.00,,,0.00,VWS V14.01,2013-09-19 12:17:00,
2013-09-19 08:18:00,77.3,74.7,29.58,ESE,121,0.0,0.0,92,0.00,,,0.00,VWS V14.01,2013-09-19 12:18:00,
2013-09-19 08:20:00,77.4,74.8,29.58,ESE,121,0.0,0.0,92,0.00,,,0.00,VWS V14.01,2013-09-19 12:20:00,
2013-09-19 08:22:00,77.5,74.8,29.58,ESE,121,0.0,0.0,92,0.00,,,0.00,VWS V14.01,2013-09-19 12:22:00,
2013-09-19 08:24:00,77.5,74.8,29.58,ESE,121,0.0,0.0,91,0.00,,,0.00,VWS V14.01,2013-09-19 12:24:00,
2013-09-19 08:26:00,77.8,75.1,29.58,ESE,121,0.0,0.0,91,0.00,,,0.00,VWS V14.01,2013-09-19 12:26:00,
2013-09-19 08:27:00,77.7,75.0,29.58,ESE,121,0.0,0.0,91,0.00,,,0.00,VWS V14.01,2013-09-19 12:27:00,
2013-09-19 08:28:00,77.7,74.9,29.58,ESE,121,0.0,0.0,91,0.00,,,0.00,VWS V14.01,2013-09-19 12:28:00,
2013-09-19 08:30:00,77.8,75.0,29.58,ESE,121,0.0,0.0,91,0.00,,,0.00,VWS V14.01,2013-09-19 12:30:00,
2013-09-19 08:32:00,77.8,75.0,29.58,ESE,121,0.0,0.0,91,0.00,,,0.00,VWS V14.01,2013-09-19 12:32:00,
2013-09-19 08:34:00,77.9,75.1,29.58,ESE,121,0.0,0.0,91,0.00,,,0.00,VWS V14.01,2013-09-19 12:34:00,
2013-09-19 08:36:00,78.0,75.1,29.58,ESE,121,0.0,0.0,91,0.00,,,0.00,VWS V14.01,2013-09-19 12:36:00,
2013-09-19 08:37:00,77.9,75.0,29.58,ESE,121,0.0,0.0,91,0.00,,,0.00,VWS V14.01,2013-09-19 12:37:00,
2013-09-19 08:38:00,78.0,75.1,29.58,ESE,121,0.0,0.0,91,0.00,,,0.00,VWS V14.01,2013-09-19 12:38:00,
2013-09-19 08:40:00,78.1,75.2,29.58,ESE,121,0.0,0.0,91,0.00,,,0.00,VWS V14.01,2013-09-19 12:40:00,
2013-09-19 08:42:00,78.2,75.3,29.58,ESE,121,0.0,0.0,91,0.00,,,0.00,VWS V14.01,2013-09-19 12:42:00,
2013-09-19 08:44:00,78.4,75.4,29.58,ESE,121,0.0,0.0,90,0.00,,,0.00,VWS V14.01,2013-09-19 12:44:00,
2013-09-19 08:46:00,78.4,75.4,29.58,ESE,121,0.0,0.0,90,0.00,,,0.00,VWS V14.01,2013-09-19 12:46:00,
2013-09-19 08:47:00,78.4,75.4,29.58,ESE,121,0.0,0.0,90,0.00,,,0.00,VWS V14.01,2013-09-19 12:47:00,
2013-09-19 08:48:00,78.5,75.5,29.58,ESE,121,0.0,0.0,90,0.00,,,0.00,VWS V14.01,2013-09-19 12:48:00,
2013-09-19 08:50:00,78.7,75.6,29.59,ESE,121,0.0,0.0,90,0.00,,,0.00,VWS V14.01,2013-09-19 12:50:00,
2013-09-19 08:52:00,78.8,75.7,29.59,ESE,121,0.0,0.0,90,0.00,,,0.00,VWS V14.01,2013-09-19 12:52:00,
2013-09-19 08:54:00,78.9,75.8,29.59,ESE,121,0.0,0.0,90,0.00,,,0.00,VWS V14.01,2013-09-19 12:54:00,
2013-09-19 08:56:00,78.9,75.8,29.59,ESE,121,0.0,0.0,90,0.00,,,0.00,VWS V14.01,2013-09-19 12:56:00,
2013-09-19 08:57:00,79.0,75.8,29.59,ESE,121,0.0,0.0,90,0.00,,,0.00,VWS V14.01,2013-09-19 12:57:00,
2013-09-19 08:58:00,79.1,75.9,29.59,ESE,121,0.0,0.0,90,0.00,,,0.00,VWS V14.01,2013-09-19 12:58:00,
2013-09-19 09:00:00,79.0,75.8,29.59,ESE,121,0.0,0.0,90,0.00,,,0.00,VWS V14.01,2013-09-19 13:00:00,
2013-09-19 09:02:00,79.1,75.9,29.59,ESE,121,0.0,0.0,90,0.00,,,0.00,VWS V14.01,2013-09-19 13:02:00,
2013-09-19 09:04:00,79.1,75.9,29.59,ESE,121,0.0,0.0,90,0.00,,,0.00,VWS V14.01,2013-09-19 13:04:00,
2013-09-19 09:06:00,79.1,75.9,29.59,ESE,121,0.0,0.0,90,0.00,,,0.00,VWS V14.01,2013-09-19 13:06:00,
2013-09-19 09:07:00,79.1,75.9,29.59,ESE,121,0.0,0.0,90,0.00,,,0.00,VWS V14.01,2013-09-19 13:07:00,
2013-09-19 09:08:00,79.2,76.0,29.59,ESE,121,0.0,0.0,90,0.00,,,0.00,VWS V14.01,2013-09-19 13:08:00,
2013-09-19 09:10:00,79.2,76.0,29.58,ESE,121,0.0,0.0,90,0.00,,,0.00,VWS V14.01,2013-09-19 13:10:00,
2013-09-19 09:12:00,79.2,76.0,29.59,ESE,121,0.0,0.0,90,0.00,,,0.00,VWS V14.01,2013-09-19 13:12:00,
2013-09-19 09:14:00,79.2,76.1,29.58,ESE,121,0.0,0.0,90,0.00,,,0.00,VWS V14.01,2013-09-19 13:14:00,
2013-09-19 09:16:00,79.4,76.2,29.59,ESE,121,0.0,0.0,90,0.00,,,0.00,VWS V14.01,2013-09-19 13:16:00,
2013-09-19 09:17:00,79.4,76.2,29.58,ESE,121,0.0,0.0,90,0.00,,,0.00,VWS V14.01,2013-09-19 13:17:00,
2013-09-19 09:18:00,79.4,76.0,29.59,ESE,121,0.0,0.0,89,0.00,,,0.00,VWS V14.01,2013-09-19 13:18:00,
2013-09-19 09:20:00,79.9,76.3,29.59,ESE,121,0.0,0.0,89,0.00,,,0.00,VWS V14.01,2013-09-19 13:20:00,
2013-09-19 09:22:00,80.0,76.4,29.59,ESE,121,0.0,0.0,89,0.00,,,0.00,VWS V14.01,2013-09-19 13:22:00,
2013-09-19 09:24:00,80.1,76.3,29.59,ESE,121,0.0,0.0,88,0.00,,,0.00,VWS V14.01,2013-09-19 13:24:00,
2013-09-19 09:26:00,80.4,76.4,29.59,East,91,2.1,2.1,88,0.00,,,0.00,VWS V14.01,2013-09-19 13:26:00,
2013-09-19 09:27:00,80.3,76.1,29.59,East,91,0.0,2.1,87,0.00,,,0.00,VWS V14.01,2013-09-19 13:27:00,
2013-09-19 09:28:00,80.4,76.2,29.59,East,91,0.0,2.1,87,0.00,,,0.00,VWS V14.01,2013-09-19 13:28:00,
2013-09-19 09:30:00,80.5,76.1,29.59,East,91,0.0,0.0,86,0.00,,,0.00,VWS V14.01,2013-09-19 13:30:00,
2013-09-19 09:32:00,80.6,75.8,29.59,East,91,0.0,0.0,86,0.00,,,0.00,VWS V14.01,2013-09-19 13:32:00,
2013-09-19 09:34:00,81.1,76.2,29.59,East,91,0.0,0.0,85,0.00,,,0.00,VWS V14.01,2013-09-19 13:34:00,
2013-09-19 09:36:00,80.9,76.1,29.59,East,91,0.0,0.0,85,0.00,,,0.00,VWS V14.01,2013-09-19 13:36:00,
2013-09-19 09:37:00,81.2,76.4,29.59,East,91,0.0,0.0,86,0.00,,,0.00,VWS V14.01,2013-09-19 13:37:00,
2013-09-19 09:38:00,81.4,76.7,29.59,East,91,0.0,0.0,86,0.00,,,0.00,VWS V14.01,2013-09-19 13:38:00,
2013-09-19 09:40:00,81.5,76.6,29.60,East,91,0.0,0.0,85,0.00,,,0.00,VWS V14.01,2013-09-19 13:40:00,
2013-09-19 09:42:00,81.4,76.3,29.60,East,91,0.0,0.0,84,0.00,,,0.00,VWS V14.01,2013-09-19 13:42:00,
2013-09-19 09:44:00,81.8,76.7,29.60,East,91,0.0,0.0,85,0.00,,,0.00,VWS V14.01,2013-09-19 13:44:00,
2013-09-19 09:46:00,81.7,76.5,29.60,East,91,0.0,0.0,84,0.00,,,0.00,VWS V14.01,2013-09-19 13:46:00,
2013-09-19 09:47:00,81.8,76.6,29.59,East,91,0.0,0.0,84,0.00,,,0.00,VWS V14.01,2013-09-19 13:47:00,
2013-09-19 09:48:00,82.0,76.6,29.59,East,91,0.0,0.0,84,0.00,,,0.00,VWS V14.01,2013-09-19 13:48:00,
2013-09-19 09:50:00,82.0,76.7,29.60,East,91,0.0,0.0,84,0.00,,,0.00,VWS V14.01,2013-09-19 13:50:00,
2013-09-19 09:52:00,82.4,77.0,29.60,East,91,0.0,0.0,84,0.00,,,0.00,VWS V14.01,2013-09-19 13:52:00,
2013-09-19 09:54:00,82.4,76.8,29.60,East,91,0.0,3.0,83,0.00,,,0.00,VWS V14.01,2013-09-19 13:54:00,
2013-09-19 09:56:00,82.4,76.5,29.60,East,91,0.0,0.0,82,0.00,,,0.00,VWS V14.01,2013-09-19 13:56:00,
2013-09-19 09:58:00,82.7,76.7,29.60,East,91,0.0,0.0,82,0.00,,,0.00,VWS V14.01,2013-09-19 13:58:00,
2013-09-19 10:00:00,82.8,76.7,29.60,East,91,0.0,0.0,82,0.00,,,0.00,VWS V14.01,2013-09-19 14:00:00,
2013-09-19 10:02:00,83.1,76.8,29.60,East,91,0.0,0.0,81,0.00,,,0.00,VWS V14.01,2013-09-19 14:02:00,
2013-09-19 10:04:00,83.3,76.7,29.60,East,91,0.0,0.0,81,0.00,,,0.00,VWS V14.01,2013-09-19 14:04:00,
2013-09-19 10:06:00,83.4,76.7,29.60,East,91,0.0,0.0,80,0.00,,,0.00,VWS V14.01,2013-09-19 14:06:00,
2013-09-19 10:07:00,83.5,76.9,29.60,East,91,0.0,0.0,81,0.00,,,0.00,VWS V14.01,2013-09-19 14:07:00,
2013-09-19 10:08:00,83.6,77.1,29.60,East,91,0.0,0.0,81,0.00,,,0.00,VWS V14.01,2013-09-19 14:08:00,
2013-09-19 10:10:00,83.7,76.6,29.60,East,91,0.0,1.9,79,0.00,,,0.00,VWS V14.01,2013-09-19 14:10:00,
2013-09-19 10:12:00,83.7,76.6,29.60,East,91,0.0,0.0,79,0.00,,,0.00,VWS V14.01,2013-09-19 14:12:00,
2013-09-19 10:14:00,84.0,76.8,29.61,East,91,0.0,0.0,79,0.00,,,0.00,VWS V14.01,2013-09-19 14:14:00,
2013-09-19 10:16:00,84.0,77.1,29.61,East,91,0.0,0.0,80,0.00,,,0.00,VWS V14.01,2013-09-19 14:16:00,
2013-09-19 10:17:00,84.0,77.0,29.61,East,91,0.0,0.0,80,0.00,,,0.00,VWS V14.01,2013-09-19 14:17:00,
2013-09-19 10:18:00,84.2,76.9,29.61,East,91,0.0,0.0,79,0.00,,,0.00,VWS V14.01,2013-09-19 14:18:00,
2013-09-19 10:20:00,84.4,77.0,29.61,East,91,0.0,0.0,79,0.00,,,0.00,VWS V14.01,2013-09-19 14:20:00,
2013-09-19 10:22:00,84.5,76.8,29.61,East,91,0.0,0.0,78,0.00,,,0.00,VWS V14.01,2013-09-19 14:22:00,
2013-09-19 10:24:00,84.6,77.2,29.61,East,91,0.0,0.0,79,0.00,,,0.00,VWS V14.01,2013-09-19 14:24:00,
2013-09-19 10:26:00,84.7,77.1,29.61,East,79,0.0,2.7,78,0.00,,,0.00,VWS V14.01,2013-09-19 14:26:00,
2013-09-19 10:27:00,84.8,77.4,29.61,East,79,0.0,0.0,79,0.00,,,0.00,VWS V14.01,2013-09-19 14:27:00,
2013-09-19 10:28:00,84.7,76.9,29.61,East,79,0.0,0.0,78,0.00,,,0.00,VWS V14.01,2013-09-19 14:28:00,
2013-09-19 10:30:00,84.8,76.5,29.61,East,79,0.0,0.0,76,0.00,,,0.00,VWS V14.01,2013-09-19 14:30:00,
2013-09-19 10:32:00,85.1,77.1,29.61,East,79,0.0,0.0,77,0.00,,,0.00,VWS V14.01,2013-09-19 14:32:00,
2013-09-19 10:34:00,85.1,75.8,29.61,East,79,0.0,0.0,74,0.00,,,0.00,VWS V14.01,2013-09-19 14:34:00,
2013-09-19 10:36:00,85.3,75.8,29.61,East,79,0.0,0.0,73,0.00,,,0.00,VWS V14.01,2013-09-19 14:36:00,
2013-09-19 10:37:00,85.2,75.7,29.61,East,79,0.0,0.0,73,0.00,,,0.00,VWS V14.01,2013-09-19 14:37:00,
2013-09-19 10:38:00,85.4,76.0,29.61,East,79,0.0,0.0,74,0.00,,,0.00,VWS V14.01,2013-09-19 14:38:00,
2013-09-19 10:40:00,85.4,75.9,29.61,East,79,0.0,0.0,73,0.00,,,0.00,VWS V14.01,2013-09-19 14:40:00,
2013-09-19 10:42:00,85.5,75.9,29.61,East,79,0.0,0.0,73,0.00,,,0.00,VWS V14.01,2013-09-19 14:42:00,
2013-09-19 10:44:00,85.5,76.1,29.61,East,79,0.0,0.0,74,0.00,,,0.00,VWS V14.01,2013-09-19 14:44:00,
2013-09-19 10:46:00,85.5,75.7,29.61,East,79,0.0,0.0,72,0.00,,,0.00,VWS V14.01,2013-09-19 14:46:00,
2013-09-19 10:47:00,85.5,75.6,29.61,East,79,0.0,0.0,72,0.00,,,0.00,VWS V14.01,2013-09-19 14:47:00,
2013-09-19 10:48:00,85.5,75.9,29.61,East,79,0.0,0.0,73,0.00,,,0.00,VWS V14.01,2013-09-19 14:48:00,
2013-09-19 10:50:00,85.5,75.7,29.61,East,79,0.0,0.0,73,0.00,,,0.00,VWS V14.01,2013-09-19 14:50:00,
2013-09-19 10:52:00,85.4,75.6,29.61,East,79,0.0,0.0,72,0.00,,,0.00,VWS V14.01,2013-09-19 14:52:00,
2013-09-19 10:54:00,85.4,76.2,29.61,East,79,0.0,0.0,74,0.00,,,0.00,VWS V14.01,2013-09-19 14:54:00,
2013-09-19 10:56:00,85.5,75.9,29.62,East,79,0.0,0.0,73,0.00,,,0.00,VWS V14.01,2013-09-19 14:56:00,
2013-09-19 10:57:00,85.4,75.8,29.62,East,79,0.0,0.0,73,0.00,,,0.00,VWS V14.01,2013-09-19 14:57:00,
2013-09-19 10:58:00,85.6,75.8,29.62,East,79,0.0,0.0,73,0.00,,,0.00,VWS V14.01,2013-09-19 14:58:00,
2013-09-19 11:00:00,85.5,75.5,29.62,East,79,0.0,0.0,72,0.00,,,0.00,VWS V14.01,2013-09-19 15:00:00,
2013-09-19 11:02:00,85.8,75.5,29.62,East,79,0.0,0.0,72,0.00,,,0.00,VWS V14.01,2013-09-19 15:02:00,
2013-09-19 11:04:00,85.8,75.2,29.62,East,79,0.0,0.0,71,0.00,,,0.00,VWS V14.01,2013-09-19 15:04:00,
2013-09-19 11:06:00,85.7,75.1,29.62,East,79,0.0,0.0,71,0.00,,,0.00,VWS V14.01,2013-09-19 15:06:00,
2013-09-19 11:07:00,85.9,75.0,29.62,East,79,0.0,0.0,70,0.00,,,0.00,VWS V14.01,2013-09-19 15:07:00,
2013-09-19 11:08:00,85.9,75.2,29.62,East,79,0.0,0.0,71,0.00,,,0.00,VWS V14.01,2013-09-19 15:08:00,
2013-09-19 11:10:00,85.7,75.2,29.62,East,79,0.0,0.0,71,0.00,,,0.00,VWS V14.01,2013-09-19 15:10:00,
2013-09-19 11:12:00,85.9,75.7,29.62,East,79,0.0,0.0,72,0.00,,,0.00,VWS V14.01,2013-09-19 15:12:00,
2013-09-19 11:14:00,85.7,75.0,29.62,East,79,0.0,0.0,70,0.00,,,0.00,VWS V14.01,2013-09-19 15:14:00,
2013-09-19 11:16:00,85.6,75.1,29.62,East,79,0.0,0.0,71,0.00,,,0.00,VWS V14.01,2013-09-19 15:16:00,
2013-09-19 11:17:00,85.7,75.3,29.62,East,79,0.0,0.0,71,0.00,,,0.00,VWS V14.01,2013-09-19 15:17:00,
2013-09-19 11:18:00,85.8,75.7,29.62,East,79,0.0,0.0,72,0.00,,,0.00,VWS V14.01,2013-09-19 15:18:00,
2013-09-19 11:20:00,85.7,75.5,29.62,East,79,0.0,0.0,72,0.00,,,0.00,VWS V14.01,2013-09-19 15:20:00,
2013-09-19 11:22:00,85.9,75.4,29.62,East,79,0.0,0.0,71,0.00,,,0.00,VWS V14.01,2013-09-19 15:22:00,
2013-09-19 11:24:00,85.9,75.5,29.62,East,79,0.0,0.0,71,0.00,,,0.00,VWS V14.01,2013-09-19 15:24:00,
2013-09-19 11:26:00,86.0,74.9,29.62,East,79,0.0,0.0,70,0.00,,,0.00,VWS V14.01,2013-09-19 15:26:00,
2013-09-19 11:27:00,85.9,74.8,29.62,East,79,0.0,0.0,70,0.00,,,0.00,VWS V14.01,2013-09-19 15:27:00,
2013-09-19 11:28:00,85.9,74.3,29.62,East,79,0.0,0.0,68,0.00,,,0.00,VWS V14.01,2013-09-19 15:28:00,
2013-09-19 11:30:00,85.6,73.9,29.62,East,79,0.0,0.0,68,0.00,,,0.00,VWS V14.01,2013-09-19 15:30:00,
2013-09-19 11:32:00,85.5,74.0,29.62,East,79,0.0,0.0,69,0.00,,,0.00,VWS V14.01,2013-09-19 15:32:00,
2013-09-19 11:34:00,85.5,74.8,29.63,East,79,0.0,0.0,70,0.00,,,0.00,VWS V14.01,2013-09-19 15:34:00,
2013-09-19 11:36:00,85.6,74.9,29.63,East,79,0.0,0.0,70,0.00,,,0.00,VWS V14.01,2013-09-19 15:36:00,
2013-09-19 11:37:00,85.5,74.9,29.63,East,79,0.0,0.0,71,0.00,,,0.00,VWS V14.01,2013-09-19 15:37:00,
2013-09-19 11:38:00,85.5,74.6,29.63,East,79,0.0,0.0,70,0.00,,,0.00,VWS V14.01,2013-09-19 15:38:00,
2013-09-19 11:40:00,85.5,74.8,29.62,East,79,0.0,0.0,70,0.00,,,0.00,VWS V14.01,2013-09-19 15:40:00,
2013-09-19 11:42:00,85.5,74.9,29.63,East,79,0.0,0.0,71,0.00,,,0.00,VWS V14.01,2013-09-19 15:42:00,
2013-09-19 11:44:00,85.6,74.8,29.63,East,79,0.0,0.0,70,0.00,,,0.00,VWS V14.01,2013-09-19 15:44:00,
2013-09-19 11:46:00,85.7,74.4,29.63,East,79,0.0,0.0,69,0.00,,,0.00,VWS V14.01,2013-09-19 15:46:00,
2013-09-19 11:47:00,85.7,74.6,29.63,East,79,0.0,0.0,70,0.00,,,0.00,VWS V14.01,2013-09-19 15:47:00,
2013-09-19 11:48:00,85.8,75.1,29.63,East,79,0.0,0.0,70,0.00,,,0.00,VWS V14.01,2013-09-19 15:48:00,
2013-09-19 11:50:00,85.8,75.0,29.63,East,79,0.0,0.0,70,0.00,,,0.00,VWS V14.01,2013-09-19 15:50:00,
2013-09-19 11:52:00,85.8,74.9,29.63,East,79,0.0,0.0,70,0.00,,,0.00,VWS V14.01,2013-09-19 15:52:00,
2013-09-19 11:54:00,85.8,75.1,29.63,East,79,0.0,0.0,70,0.00,,,0.00,VWS V14.01,2013-09-19 15:54:00,
2013-09-19 11:56:00,85.8,75.1,29.63,East,79,0.0,0.0,70,0.00,,,0.00,VWS V14.01,2013-09-19 15:56:00,
2013-09-19 11:57:00,85.9,75.0,29.63,East,79,0.0,0.0,70,0.00,,,0.00,VWS V14.01,2013-09-19 15:57:00,
2013-09-19 11:58:00,85.9,74.2,29.63,East,79,0.0,0.0,68,0.00,,,0.00,VWS V14.01,2013-09-19 15:58:00,
2013-09-19 12:00:00,86.0,74.7,29.63,East,79,0.0,0.0,69,0.00,,,0.00,VWS V14.01,2013-09-19 16:00:00,
2013-09-19 12:02:00,86.2,74.8,29.63,East,79,0.0,0.0,69,0.00,,,0.00,VWS V14.01,2013-09-19 16:02:00,
2013-09-19 12:04:00,86.2,74.8,29.63,East,79,0.0,0.0,69,0.00,,,0.00,VWS V14.01,2013-09-19 16:04:00,
2013-09-19 12:06:00,86.4,74.7,29.62,East,79,0.0,0.0,68,0.00,,,0.00,VWS V14.01,2013-09-19 16:06:00,
2013-09-19 12:07:00,86.4,74.7,29.62,East,79,0.0,0.0,68,0.00,,,0.00,VWS V14.01,2013-09-19 16:07:00,
2013-09-19 12:08:00,86.6,74.8,29.63,East,79,0.0,0.0,68,0.00,,,0.00,VWS V14.01,2013-09-19 16:08:00,
2013-09-19 12:10:00,86.6,75.1,29.62,East,79,0.0,2.4,69,0.00,,,0.00,VWS V14.01,2013-09-19 16:10:00,
2013-09-19 12:12:00,86.7,74.9,29.63,East,79,0.0,0.0,68,0.00,,,0.00,VWS V14.01,2013-09-19 16:12:00,
2013-09-19 12:14:00,86.7,74.7,29.63,East,79,0.0,0.0,68,0.00,,,0.00,VWS V14.01,2013-09-19 16:14:00,
2013-09-19 12:16:00,86.9,74.8,29.63,East,79,0.0,0.0,67,0.00,,,0.00,VWS V14.01,2013-09-19 16:16:00,
2013-09-19 12:17:00,86.9,74.9,29.63,East,79,0.0,0.0,68,0.00,,,0.00,VWS V14.01,2013-09-19 16:17:00,
2013-09-19 12:18:00,86.9,74.9,29.63,East,79,0.0,0.0,68,0.00,,,0.00,VWS V14.01,2013-09-19 16:18:00,
2013-09-19 12:20:00,87.0,75.1,29.62,East,79,0.0,0.0,68,0.00,,,0.00,VWS V14.01,2013-09-19 16:20:00,
2013-09-19 12:22:00,86.9,74.8,29.62,East,79,0.0,0.0,67,0.00,,,0.00,VWS V14.01,2013-09-19 16:22:00,
2013-09-19 12:24:00,87.0,74.7,29.62,East,79,0.0,0.0,67,0.00,,,0.00,VWS V14.01,2013-09-19 16:24:00,
2013-09-19 12:26:00,87.2,74.6,29.62,East,79,0.0,0.0,66,0.00,,,0.00,VWS V14.01,2013-09-19 16:26:00,
2013-09-19 12:27:00,87.2,74.7,29.62,East,79,0.0,0.0,67,0.00,,,0.00,VWS V14.01,2013-09-19 16:27:00,
2013-09-19 12:28:00,87.2,74.9,29.62,East,79,0.0,0.0,67,0.00,,,0.00,VWS V14.01,2013-09-19 16:28:00,
2013-09-19 12:30:00,87.1,74.7,29.62,East,79,0.0,0.0,67,0.00,,,0.00,VWS V14.01,2013-09-19 16:30:00,
2013-09-19 12:32:00,87.2,74.6,29.62,East,79,0.0,0.0,66,0.00,,,0.00,VWS V14.01,2013-09-19 16:32:00,
2013-09-19 12:34:00,87.3,74.9,29.62,East,79,0.0,0.0,67,0.00,,,0.00,VWS V14.01,2013-09-19 16:34:00,
2013-09-19 12:36:00,87.5,74.3,29.62,East,79,0.0,0.0,65,0.00,,,0.00,VWS V14.01,2013-09-19 16:36:00,
2013-09-19 12:37:00,87.5,73.9,29.62,East,79,0.0,0.0,64,0.00,,,0.00,VWS V14.01,2013-09-19 16:37:00,
2013-09-19 12:38:00,87.5,73.5,29.62,East,79,0.0,0.0,63,0.00,,,0.00,VWS V14.01,2013-09-19 16:38:00,
2013-09-19 12:40:00,87.6,74.4,29.62,East,79,0.0,0.0,65,0.00,,,0.00,VWS V14.01,2013-09-19 16:40:00,
2013-09-19 12:42:00,87.7,74.3,29.62,East,79,0.0,0.0,65,0.00,,,0.00,VWS V14.01,2013-09-19 16:42:00,
2013-09-19 12:44:00,87.9,74.6,29.62,East,79,0.0,0.0,65,0.00,,,0.00,VWS V14.01,2013-09-19 16:44:00,
2013-09-19 12:46:00,88.0,75.0,29.62,East,79,0.0,0.0,66,0.00,,,0.00,VWS V14.01,2013-09-19 16:46:00,
2013-09-19 12:47:00,88.0,75.1,29.62,East,79,0.0,0.0,66,0.00,,,0.00,VWS V14.01,2013-09-19 16:47:00,
2013-09-19 12:48:00,88.1,75.1,29.62,East,79,0.0,0.0,66,0.00,,,0.00,VWS V14.01,2013-09-19 16:48:00,
2013-09-19 12:50:00,88.2,75.6,29.61,East,79,0.0,3.1,66,0.00,,,0.00,VWS V14.01,2013-09-19 16:50:00,
2013-09-19 12:52:00,88.2,75.8,29.62,East,79,0.0,0.0,67,0.00,,,0.00,VWS V14.01,2013-09-19 16:52:00,
2013-09-19 12:54:00,88.3,75.4,29.61,East,79,0.0,0.0,66,0.00,,,0.00,VWS V14.01,2013-09-19 16:54:00,
2013-09-19 12:56:00,88.5,76.3,29.61,East,79,0.0,0.0,67,0.00,,,0.00,VWS V14.01,2013-09-19 16:56:00,
2013-09-19 12:57:00,88.4,76.1,29.61,East,79,0.0,0.0,67,0.00,,,0.00,VWS V14.01,2013-09-19 16:57:00,
2013-09-19 12:58:00,88.4,75.4,29.61,East,79,0.0,0.0,66,0.00,,,0.00,VWS V14.01,2013-09-19 16:58:00,
2013-09-19 13:00:00,88.4,75.5,29.61,East,79,0.0,0.0,66,0.00,,,0.00,VWS V14.01,2013-09-19 17:00:00,
2013-09-19 13:02:00,88.3,75.6,29.61,East,79,0.0,0.0,66,0.00,,,0.00,VWS V14.01,2013-09-19 17:02:00,
2013-09-19 13:04:00,88.3,73.6,29.61,East,79,0.0,0.0,62,0.00,,,0.00,VWS V14.01,2013-09-19 17:04:00,
2013-09-19 13:06:00,88.5,74.9,29.61,East,79,0.0,0.0,64,0.00,,,0.00,VWS V14.01,2013-09-19 17:06:00,
2013-09-19 13:07:00,88.4,74.8,29.61,East,79,0.0,0.0,64,0.00,,,0.00,VWS V14.01,2013-09-19 17:07:00,
2013-09-19 13:08:00,88.5,74.7,29.61,East,79,0.0,0.0,64,0.00,,,0.00,VWS V14.01,2013-09-19 17:08:00,
2013-09-19 13:10:00,88.6,74.6,29.61,East,79,0.0,0.0,63,0.00,,,0.00,VWS V14.01,2013-09-19 17:10:00,
2013-09-19 13:12:00,88.5,74.4,29.61,East,79,0.0,0.0,63,0.00,,,0.00,VWS V14.01,2013-09-19 17:12:00,
2013-09-19 13:14:00,88.6,74.3,29.61,East,100,0.0,3.0,63,0.00,,,0.00,VWS V14.01,2013-09-19 17:14:00,
2013-09-19 13:16:00,88.7,75.1,29.61,East,100,0.0,0.0,64,0.00,,,0.00,VWS V14.01,2013-09-19 17:16:00,
2013-09-19 13:17:00,88.6,75.0,29.61,East,100,0.0,0.0,64,0.00,,,0.00,VWS V14.01,2013-09-19 17:17:00,
2013-09-19 13:18:00,88.6,74.5,29.61,East,100,0.0,0.0,63,0.00,,,0.00,VWS V14.01,2013-09-19 17:18:00,
2013-09-19 13:20:00,88.8,74.7,29.60,East,100,0.0,0.0,63,0.00,,,0.00,VWS V14.01,2013-09-19 17:20:00,
2013-09-19 13:22:00,88.9,74.7,29.60,East,100,0.0,0.0,63,0.00,,,0.00,VWS V14.01,2013-09-19 17:22:00,
2013-09-19 13:24:00,89.1,74.8,29.60,East,100,0.0,0.0,63,0.00,,,0.00,VWS V14.01,2013-09-19 17:24:00,
2013-09-19 13:26:00,89.2,73.6,29.60,East,100,0.0,0.0,60,0.00,,,0.00,VWS V14.01,2013-09-19 17:26:00,
2013-09-19 13:27:00,89.1,73.4,29.60,East,100,0.0,0.0,60,0.00,,,0.00,VWS V14.01,2013-09-19 17:27:00,
2013-09-19 13:28:00,89.1,73.1,29.60,ENE,75,0.0,2.2,59,0.00,,,0.00,VWS V14.01,2013-09-19 17:28:00,
2013-09-19 13:30:00,89.2,73.4,29.60,ENE,75,0.0,0.0,60,0.00,,,0.00,VWS V14.01,2013-09-19 17:30:00,
2013-09-19 13:32:00,89.3,73.6,29.60,ENE,75,0.0,0.0,60,0.00,,,0.00,VWS V14.01,2013-09-19 17:32:00,
2013-09-19 13:34:00,89.4,73.7,29.60,ENE,75,0.0,0.0,60,0.00,,,0.00,VWS V14.01,2013-09-19 17:34:00,
2013-09-19 13:36:00,89.4,73.8,29.60,ENE,75,0.0,0.0,60,0.00,,,0.00,VWS V14.01,2013-09-19 17:36:00,
2013-09-19 13:37:00,89.4,73.8,29.60,ENE,75,0.0,0.0,60,0.00,,,0.00,VWS V14.01,2013-09-19 17:37:00,
2013-09-19 13:38:00,89.5,74.2,29.60,ENE,63,0.0,2.8,61,0.00,,,0.00,VWS V14.01,2013-09-19 17:38:00,
2013-09-19 13:40:00,89.5,73.8,29.60,ENE,63,0.0,0.0,60,0.00,,,0.00,VWS V14.01,2013-09-19 17:40:00,
2013-09-19 13:42:00,89.5,73.8,29.60,ENE,63,0.0,0.0,60,0.00,,,0.00,VWS V14.01,2013-09-19 17:42:00,
2013-09-19 13:44:00,89.6,74.2,29.59,ENE,63,0.0,0.0,61,0.00,,,0.00,VWS V14.01,2013-09-19 17:44:00,
2013-09-19 13:46:00,89.6,74.8,29.59,ENE,63,0.0,0.0,62,0.00,,,0.00,VWS V14.01,2013-09-19 17:46:00,
2013-09-19 13:47:00,89.6,75.2,29.59,ENE,63,0.0,0.0,63,0.00,,,0.00,VWS V14.01,2013-09-19 17:47:00,
2013-09-19 13:48:00,89.5,74.5,29.59,ENE,63,0.0,0.0,61,0.00,,,0.00,VWS V14.01,2013-09-19 17:48:00,
2013-09-19 13:50:00,89.6,74.2,29.59,ENE,63,0.0,0.0,61,0.00,,,0.00,VWS V14.01,2013-09-19 17:50:00,
2013-09-19 13:52:00,89.6,74.6,29.59,ENE,63,0.0,0.0,62,0.00,,,0.00,VWS V14.01,2013-09-19 17:52:00,
2013-09-19 13:54:00,89.5,73.7,29.59,NNE,32,0.0,0.0,60,0.00,,,0.00,VWS V14.01,2013-09-19 17:54:00,
2013-09-19 13:56:00,89.7,74.7,29.59,NNE,32,0.0,0.0,61,0.00,,,0.00,VWS V14.01,2013-09-19 17:56:00,
2013-09-19 13:57:00,89.6,74.7,29.59,NNE,32,0.0,0.0,62,0.00,,,0.00,VWS V14.01,2013-09-19 17:57:00,
2013-09-19 13:58:00,89.7,74.5,29.59,NNE,32,0.0,0.0,61,0.00,,,0.00,VWS V14.01,2013-09-19 17:58:00,
2013-09-19 14:00:00,89.7,74.4,29.59,NNE,32,0.0,0.0,61,0.00,,,0.00,VWS V14.01,2013-09-19 18:00:00,
2013-09-19 14:02:00,89.7,74.2,29.59,NNE,32,2.2,2.5,60,0.00,,,0.00,VWS V14.01,2013-09-19 18:02:00,
2013-09-19 14:04:00,89.6,74.3,29.59,ENE,58,0.0,0.0,61,0.00,,,0.00,VWS V14.01,2013-09-19 18:04:00,
2013-09-19 14:06:00,89.6,73.7,29.59,ENE,58,0.0,0.0,60,0.00,,,0.00,VWS V14.01,2013-09-19 18:06:00,
2013-09-19 14:07:00,89.5,73.6,29.59,ENE,58,0.0,0.0,60,0.00,,,0.00,VWS V14.01,2013-09-19 18:07:00,
2013-09-19 14:08:00,89.4,73.6,29.59,ENE,58,0.0,0.0,60,0.00,,,0.00,VWS V14.01,2013-09-19 18:08:00,
2013-09-19 14:10:00,89.6,74.2,29.58,ENE,58,0.0,0.0,61,0.00,,,0.00,VWS V14.01,2013-09-19 18:10:00,
2013-09-19 14:12:00,89.6,73.9,29.58,ENE,58,0.0,0.0,60,0.00,,,0.00,VWS V14.01,2013-09-19 18:12:00,
2013-09-19 14:14:00,89.8,74.4,29.58,ENE,58,0.0,0.0,61,0.00,,,0.00,VWS V14.01,2013-09-19 18:14:00,
2013-09-19 14:16:00,89.9,74.1,29.58,ENE,58,0.0,0.0,60,0.00,,,0.00,VWS V14.01,2013-09-19 18:16:00,
2013-09-19 14:17:00,89.9,74.0,29.58,ENE,58,0.0,0.0,60,0.00,,,0.00,VWS V14.01,2013-09-19 18:17:00,
2013-09-19 14:18:00,90.0,74.0,29.58,ENE,58,0.0,0.0,59,0.00,,,0.00,VWS V14.01,2013-09-19 18:18:00,
2013-09-19 14:20:00,90.1,74.5,29.58,ENE,58,0.0,0.0,60,0.00,,,0.00,VWS V14.01,2013-09-19 18:20:00,
2013-09-19 14:22:00,90.1,73.3,29.58,ENE,58,0.0,0.0,58,0.00,,,0.00,VWS V14.01,2013-09-19 18:22:00,
2013-09-19 14:24:00,90.3,73.4,29.58,ENE,68,0.0,3.2,58,0.00,,,0.00,VWS V14.01,2013-09-19 18:24:00,
2013-09-19 14:26:00,90.4,72.9,29.58,ENE,68,0.0,0.0,57,0.00,,,0.00,VWS V14.01,2013-09-19 18:26:00,
2013-09-19 14:27:00,90.4,72.9,29.58,ENE,68,0.0,0.0,57,0.00,,,0.00,VWS V14.01,2013-09-19 18:27:00,
2013-09-19 14:28:00,90.6,73.7,29.58,ENE,68,0.0,0.0,58,0.00,,,0.00,VWS V14.01,2013-09-19 18:28:00,
2013-09-19 14:30:00,90.6,74.0,29.58,ENE,68,0.0,0.0,58,0.00,,,0.00,VWS V14.01,2013-09-19 18:30:00,
2013-09-19 14:32:00,90.7,74.2,29.58,ENE,68,0.0,0.0,58,0.00,,,0.00,VWS V14.01,2013-09-19 18:32:00,
2013-09-19 14:34:00,90.6,74.7,29.58,ENE,68,0.0,0.0,60,0.00,,,0.00,VWS V14.01,2013-09-19 18:34:00,
2013-09-19 14:36:00,90.4,74.4,29.58,ENE,68,0.0,0.0,60,0.00,,,0.00,VWS V14.01,2013-09-19 18:36:00,
2013-09-19 14:37:00,90.5,74.6,29.58,ENE,68,0.0,0.0,60,0.00,,,0.00,VWS V14.01,2013-09-19 18:37:00,
2013-09-19 14:38:00,90.4,74.8,29.58,ENE,68,0.0,0.0,60,0.00,,,0.00,VWS V14.01,2013-09-19 18:38:00,
2013-09-19 14:40:00,90.2,74.5,29.58,ENE,70,0.0,5.0,60,0.00,,,0.00,VWS V14.01,2013-09-19 18:40:00,
2013-09-19 14:42:00,90.3,75.0,29.58,ENE,70,0.0,0.0,61,0.00,,,0.00,VWS V14.01,2013-09-19 18:42:00,
2013-09-19 14:44:00,90.2,74.9,29.58,ENE,70,0.0,0.0,61,0.00,,,0.00,VWS V14.01,2013-09-19 18:44:00,
2013-09-19 14:46:00,90.2,74.7,29.58,ENE,70,0.0,0.0,60,0.00,,,0.00,VWS V14.01,2013-09-19 18:46:00,
2013-09-19 14:47:00,90.3,74.8,29.58,ENE,70,0.0,0.0,60,0.00,,,0.00,VWS V14.01,2013-09-19 18:47:00,
2013-09-19 14:48:00,90.5,75.7,29.58,ENE,70,0.0,0.0,62,0.00,,,0.00,VWS V14.01,2013-09-19 18:48:00,
2013-09-19 14:50:00,90.6,75.0,29.58,ENE,70,0.0,0.0,60,0.00,,,0.00,VWS V14.01,2013-09-19 18:50:00,
2013-09-19 14:52:00,90.8,75.0,29.58,ENE,70,0.0,0.0,60,0.00,,,0.00,VWS V14.01,2013-09-19 18:52:00,
2013-09-19 14:54:00,90.6,74.9,29.58,NE,42,0.0,1.9,60,0.00,,,0.00,VWS V14.01,2013-09-19 18:54:00,
2013-09-19 14:56:00,90.3,75.4,29.58,East,82,3.3,4.1,62,0.00,,,0.00,VWS V14.01,2013-09-19 18:56:00,
2013-09-19 14:57:00,90.2,75.3,29.58,ESE,103,2.9,3.3,62,0.00,,,0.00,VWS V14.01,2013-09-19 18:57:00,
2013-09-19 14:58:00,89.8,75.1,29.58,East,83,0.0,3.3,62,0.00,,,0.00,VWS V14.01,2013-09-19 18:58:00,
2013-09-19 15:00:00,89.6,75.3,29.58,East,83,3.4,3.4,63,0.00,,,0.00,VWS V14.01,2013-09-19 19:00:00,
2013-09-19 15:02:00,89.4,75.1,29.58,East,83,0.0,3.4,63,0.00,,,0.00,VWS V14.01,2013-09-19 19:02:00,
2013-09-19 15:04:00,88.9,75.4,29.58,East,83,0.0,0.0,65,0.00,,,0.00,VWS V14.01,2013-09-19 19:04:00,
2013-09-19 15:06:00,88.5,75.7,29.58,East,83,0.0,0.0,66,0.00,,,0.00,VWS V14.01,2013-09-19 19:06:00,
2013-09-19 15:07:00,88.5,75.7,29.58,East,83,0.0,0.0,66,0.00,,,0.00,VWS V14.01,2013-09-19 19:07:00,
2013-09-19 15:08:00,88.3,75.7,29.58,East,83,0.0,0.0,66,0.00,,,0.00,VWS V14.01,2013-09-19 19:08:00,
2013-09-19 15:10:00,88.0,75.2,29.58,East,83,0.0,0.0,66,0.00,,,0.00,VWS V14.01,2013-09-19 19:10:00,
2013-09-19 15:12:00,87.9,75.3,29.58,East,83,0.0,0.0,66,0.00,,,0.00,VWS V14.01,2013-09-19 19:12:00,
2013-09-19 15:14:00,87.5,75.4,29.58,East,83,0.0,0.0,68,0.00,,,0.00,VWS V14.01,2013-09-19 19:14:00,
2013-09-19 15:16:00,87.3,75.7,29.58,East,83,0.0,0.0,69,0.00,,,0.00,VWS V14.01,2013-09-19 19:16:00,
2013-09-19 15:17:00,87.1,75.5,29.58,East,83,0.0,0.0,69,0.00,,,0.00,VWS V14.01,2013-09-19 19:17:00,
2013-09-19 15:18:00,86.9,75.6,29.58,East,83,0.0,0.0,69,0.00,,,0.00,VWS V14.01,2013-09-19 19:18:00,
2013-09-19 15:20:00,86.8,75.6,29.58,East,83,0.0,0.0,69,0.00,,,0.00,VWS V14.01,2013-09-19 19:20:00,
2013-09-19 15:22:00,86.9,75.3,29.58,East,83,0.0,0.0,68,0.00,,,0.00,VWS V14.01,2013-09-19 19:22:00,
2013-09-19 15:24:00,86.7,75.2,29.58,East,83,0.0,0.0,69,0.00,,,0.00,VWS V14.01,2013-09-19 19:24:00,
2013-09-19 15:26:00,86.7,75.4,29.58,East,83,0.0,0.0,69,0.00,,,0.00,VWS V14.01,2013-09-19 19:26:00,
2013-09-19 15:27:00,86.7,75.4,29.58,East,83,0.0,0.0,69,0.00,,,0.00,VWS V14.01,2013-09-19 19:27:00,
2013-09-19 15:28:00,86.6,75.3,29.58,East,83,0.0,0.0,69,0.00,,,0.00,VWS V14.01,2013-09-19 19:28:00,
2013-09-19 15:30:00,86.7,75.8,29.57,ENE,75,0.0,2.2,70,0.00,,,0.00,VWS V14.01,2013-09-19 19:30:00,
2013-09-19 15:32:00,86.6,75.7,29.58,ENE,75,0.0,0.0,70,0.00,,,0.00,VWS V14.01,2013-09-19 19:32:00,
2013-09-19 15:34:00,86.5,75.9,29.57,ENE,75,0.0,0.0,71,0.00,,,0.00,VWS V14.01,2013-09-19 19:34:00,
2013-09-19 15:36:00,86.3,75.8,29.57,ENE,75,0.0,0.0,71,0.00,,,0.00,VWS V14.01,2013-09-19 19:36:00,
2013-09-19 15:37:00,86.3,75.8,29.57,ENE,75,0.0,0.0,71,0.00,,,0.00,VWS V14.01,2013-09-19 19:37:00,
2013-09-19 15:38:00,86.3,76.3,29.57,ENE,75,0.0,0.0,72,0.00,,,0.00,VWS V14.01,2013-09-19 19:38:00,
2013-09-19 15:40:00,86.3,76.3,29.57,East,89,0.0,2.9,72,0.00,,,0.00,VWS V14.01,2013-09-19 19:40:00,
2013-09-19 15:42:00,86.1,76.3,29.57,East,89,0.0,0.0,73,0.00,,,0.00,VWS V14.01,2013-09-19 19:42:00,
2013-09-19 15:44:00,86.3,76.5,29.57,East,89,0.0,0.0,73,0.00,,,0.00,VWS V14.01,2013-09-19 19:44:00,
2013-09-19 15:46:00,86.2,76.7,29.57,East,89,0.0,0.0,73,0.00,,,0.00,VWS V14.01,2013-09-19 19:46:00,
2013-09-19 15:47:00,86.1,76.6,29.57,East,89,0.0,0.0,73,0.00,,,0.00,VWS V14.01,2013-09-19 19:47:00,
2013-09-19 15:48:00,86.2,76.9,29.57,East,89,0.0,0.0,74,0.00,,,0.00,VWS V14.01,2013-09-19 19:48:00,
2013-09-19 15:50:00,86.3,76.8,29.57,East,89,0.0,0.0,74,0.00,,,0.00,VWS V14.01,2013-09-19 19:50:00,
2013-09-19 15:52:00,86.2,76.7,29.57,East,89,0.0,0.0,74,0.00,,,0.00,VWS V14.01,2013-09-19 19:52:00,
2013-09-19 15:54:00,86.4,76.5,29.57,East,89,0.0,0.0,72,0.00,,,0.00,VWS V14.01,2013-09-19 19:54:00,
2013-09-19 15:56:00,86.6,76.3,29.56,NE,53,0.0,2.5,72,0.00,,,0.00,VWS V14.01,2013-09-19 19:56:00,
2013-09-19 15:57:00,86.5,76.4,29.56,NE,53,2.5,2.5,72,0.00,,,0.00,VWS V14.01,2013-09-19 19:57:00,
2013-09-19 15:58:00,86.7,76.8,29.56,NE,53,0.0,0.0,72,0.00,,,0.00,VWS V14.01,2013-09-19 19:58:00,
2013-09-19 16:00:00,87.0,75.8,29.56,NE,53,0.0,0.0,69,0.00,,,0.00,VWS V14.01,2013-09-19 20:00:00,
2013-09-19 16:02:00,87.1,76.0,29.56,NE,53,0.0,0.0,70,0.00,,,0.00,VWS V14.01,2013-09-19 20:02:00,
2013-09-19 16:04:00,87.4,76.3,29.57,NE,53,0.0,0.0,70,0.00,,,0.00,VWS V14.01,2013-09-19 20:04:00,
2013-09-19 16:06:00,87.5,75.8,29.57,NE,53,0.0,0.0,68,0.00,,,0.00,VWS V14.01,2013-09-19 20:06:00,
2013-09-19 16:07:00,87.5,76.1,29.57,NE,53,0.0,0.0,69,0.00,,,0.00,VWS V14.01,2013-09-19 20:07:00,
2013-09-19 16:08:00,87.5,76.4,29.57,ESE,104,0.0,3.1,70,0.00,,,0.00,VWS V14.01,2013-09-19 20:08:00,
2013-09-19 16:10:00,87.4,75.6,29.57,NE,41,0.0,4.9,68,0.00,,,0.00,VWS V14.01,2013-09-19 20:10:00,
2013-09-19 16:12:00,87.4,75.6,29.57,NE,41,0.0,0.0,68,0.00,,,0.00,VWS V14.01,2013-09-19 20:12:00,
2013-09-19 16:14:00,87.4,75.7,29.57,NE,41,0.0,0.0,68,0.00,,,0.00,VWS V14.01,2013-09-19 20:14:00,
2013-09-19 16:16:00,87.5,76.2,29.57,NE,41,0.0,0.0,69,0.00,,,0.00,VWS V14.01,2013-09-19 20:16:00,
2013-09-19 16:17:00,87.5,75.9,29.57,NE,41,0.0,0.0,69,0.00,,,0.00,VWS V14.01,2013-09-19 20:17:00,
2013-09-19 16:18:00,87.7,76.0,29.57,NE,41,0.0,2.5,68,0.00,,,0.00,VWS V14.01,2013-09-19 20:18:00,
2013-09-19 16:20:00,88.0,75.8,29.57,ESE,112,0.0,3.2,67,0.00,,,0.00,VWS V14.01,2013-09-19 20:20:00,
2013-09-19 16:22:00,88.0,76.0,29.57,ESE,112,0.0,0.0,68,0.00,,,0.00,VWS V14.01,2013-09-19 20:22:00,
2013-09-19 16:24:00,88.3,76.3,29.57,ESE,112,0.0,0.0,68,0.00,,,0.00,VWS V14.01,2013-09-19 20:24:00,
2013-09-19 16:26:00,88.6,76.4,29.57,ESE,112,0.0,0.0,67,0.00,,,0.00,VWS V14.01,2013-09-19 20:26:00,
2013-09-19 16:27:00,88.6,76.3,29.57,ESE,112,0.0,0.0,67,0.00,,,0.00,VWS V14.01,2013-09-19 20:27:00,
2013-09-19 16:28:00,88.7,76.1,29.57,East,80,2.3,3.3,66,0.00,,,0.00,VWS V14.01,2013-09-19 20:28:00,
2013-09-19 16:30:00,88.7,75.6,29.57,East,94,0.0,5.1,65,0.00,,,0.00,VWS V14.01,2013-09-19 20:30:00,
2013-09-19 16:32:00,88.8,75.7,29.57,East,94,0.0,0.0,65,0.00,,,0.00,VWS V14.01,2013-09-19 20:32:00,
2013-09-19 16:34:00,88.6,75.9,29.57,East,94,0.0,0.0,66,0.00,,,0.00,VWS V14.01,2013-09-19 20:34:00,
2013-09-19 16:36:00,88.6,75.3,29.57,East,94,0.0,0.0,65,0.00,,,0.00,VWS V14.01,2013-09-19 20:36:00,
2013-09-19 16:37:00,88.6,75.8,29.57,East,94,0.0,0.0,66,0.00,,,0.00,VWS V14.01,2013-09-19 20:37:00,
2013-09-19 16:38:00,88.8,75.7,29.57,East,94,0.0,0.0,65,0.00,,,0.00,VWS V14.01,2013-09-19 20:38:00,
2013-09-19 16:40:00,88.9,75.4,29.57,ENE,70,0.0,4.2,65,0.00,,,0.00,VWS V14.01,2013-09-19 20:40:00,
2013-09-19 16:42:00,88.9,75.4,29.57,ENE,70,0.0,0.0,64,0.00,,,0.00,VWS V14.01,2013-09-19 20:42:00,
2013-09-19 16:44:00,88.9,76.0,29.57,ENE,70,0.0,0.0,66,0.00,,,0.00,VWS V14.01,2013-09-19 20:44:00,
2013-09-19 16:46:00,88.9,76.1,29.57,ENE,70,0.0,0.0,66,0.00,,,0.00,VWS V14.01,2013-09-19 20:46:00,
2013-09-19 16:48:00,88.6,75.8,29.57,ENE,70,0.0,0.0,66,0.00,,,0.00,VWS V14.01,2013-09-19 20:48:00,
2013-09-19 16:50:00,88.5,76.2,29.57,ENE,70,0.0,0.0,67,0.00,,,0.00,VWS V14.01,2013-09-19 20:50:00,
2013-09-19 16:51:00,88.5,76.3,29.57,ENE,70,0.0,0.0,67,0.00,,,0.00,VWS V14.01,2013-09-19 20:51:00,
2013-09-19 16:52:00,88.3,76.3,29.57,ENE,70,0.0,0.0,68,0.00,,,0.00,VWS V14.01,2013-09-19 20:52:00,
2013-09-19 16:54:00,88.1,76.1,29.57,ENE,70,0.0,0.0,68,0.00,,,0.00,VWS V14.01,2013-09-19 20:54:00,
2013-09-19 16:56:00,87.8,76.3,29.57,ENE,70,0.0,0.0,69,0.00,,,0.00,VWS V14.01,2013-09-19 20:56:00,
2013-09-19 16:58:00,87.5,76.2,29.57,ENE,70,0.0,0.0,69,0.00,,,0.00,VWS V14.01,2013-09-19 20:58:00,
2013-09-19 17:00:00,87.4,76.0,29.57,ENE,70,0.0,1.9,69,0.00,,,0.00,VWS V14.01,2013-09-19 21:00:00,
2013-09-19 17:01:00,87.3,75.8,29.57,ENE,70,0.0,0.0,69,0.00,,,0.00,VWS V14.01,2013-09-19 21:01:00,
2013-09-19 17:02:00,87.3,76.1,29.57,ENE,70,0.0,0.0,70,0.00,,,0.00,VWS V14.01,2013-09-19 21:02:00,
2013-09-19 17:04:00,87.1,75.7,29.57,ENE,70,0.0,0.0,69,0.00,,,0.00,VWS V14.01,2013-09-19 21:04:00,
2013-09-19 17:06:00,86.9,75.5,29.57,ENE,70,0.0,0.0,69,0.00,,,0.00,VWS V14.01,2013-09-19 21:06:00,
2013-09-19 17:08:00,86.8,75.2,29.57,ENE,70,0.0,0.0,69,0.00,,,0.00,VWS V14.01,2013-09-19 21:08:00,
2013-09-19 17:10:00,86.8,75.5,29.57,ENE,70,0.0,0.0,69,0.00,,,0.00,VWS V14.01,2013-09-19 21:10:00,
2013-09-19 17:11:00,86.8,75.8,29.57,ENE,70,0.0,0.0,70,0.00,,,0.00,VWS V14.01,2013-09-19 21:11:00,
2013-09-19 17:12:00,86.7,75.5,29.57,ENE,70,0.0,0.0,69,0.00,,,0.00,VWS V14.01,2013-09-19 21:12:00,
2013-09-19 17:14:00,86.7,75.6,29.57,ENE,70,0.0,0.0,70,0.00,,,0.00,VWS V14.01,2013-09-19 21:14:00,
2013-09-19 17:16:00,86.6,75.7,29.57,ENE,70,0.0,0.0,70,0.00,,,0.00,VWS V14.01,2013-09-19 21:16:00,
2013-09-19 17:18:00,86.7,75.7,29.57,East,79,0.0,4.5,70,0.00,,,0.00,VWS V14.01,2013-09-19 21:18:00,
2013-09-19 17:20:00,86.8,75.6,29.57,SE,124,0.0,3.2,69,0.00,,,0.00,VWS V14.01,2013-09-19 21:20:00,
2013-09-19 17:21:00,86.8,75.6,29.57,SE,124,0.0,0.0,69,0.00,,,0.00,VWS V14.01,2013-09-19 21:21:00,
2013-09-19 17:22:00,86.9,75.4,29.57,SE,124,0.0,0.0,69,0.00,,,0.00,VWS V14.01,2013-09-19 21:22:00,
2013-09-19 17:24:00,86.8,75.4,29.57,SE,124,0.0,0.0,69,0.00,,,0.00,VWS V14.01,2013-09-19 21:24:00,
2013-09-19 17:26:00,86.8,75.4,29.58,NE,37,0.0,2.8,69,0.00,,,0.00,VWS V14.01,2013-09-19 21:26:00,
2013-09-19 17:28:00,86.7,75.6,29.58,NE,37,0.0,0.0,70,0.00,,,0.00,VWS V14.01,2013-09-19 21:28:00,
2013-09-19 17:30:00,86.7,75.9,29.58,NE,37,0.0,0.0,70,0.00,,,0.00,VWS V14.01,2013-09-19 21:30:00,
2013-09-19 17:31:00,86.7,75.8,29.58,NE,37,0.0,0.0,70,0.00,,,0.00,VWS V14.01,2013-09-19 21:31:00,
2013-09-19 17:32:00,86.6,76.0,29.58,NE,37,0.0,0.0,71,0.00,,,0.00,VWS V14.01,2013-09-19 21:32:00,
2013-09-19 17:34:00,86.6,76.6,29.58,NE,37,0.0,2.5,72,0.00,,,0.00,VWS V14.01,2013-09-19 21:34:00,
2013-09-19 17:36:00,86.5,76.7,29.58,East,100,0.0,4.2,73,0.00,,,0.00,VWS V14.01,2013-09-19 21:36:00,
2013-09-19 17:38:00,86.0,76.3,29.58,ENE,60,3.0,4.5,73,0.00,,,0.00,VWS V14.01,2013-09-19 21:38:00,
2013-09-19 17:40:00,85.7,76.2,29.58,North,3,0.0,4.3,73,0.00,,,0.00,VWS V14.01,2013-09-19 21:40:00,
2013-09-19 17:41:00,85.7,76.0,29.58,North,3,0.0,0.0,73,0.00,,,0.00,VWS V14.01,2013-09-19 21:41:00,
2013-09-19 17:42:00,85.5,75.8,29.58,North,3,0.0,0.0,73,0.00,,,0.00,VWS V14.01,2013-09-19 21:42:00,
2013-09-19 17:44:00,85.3,75.9,29.58,North,3,0.0,0.0,74,0.00,,,0.00,VWS V14.01,2013-09-19 21:44:00,
2013-09-19 17:46:00,85.1,75.8,29.58,East,84,0.0,3.4,74,0.00,,,0.00,VWS V14.01,2013-09-19 21:46:00,
2013-09-19 17:48:00,84.6,75.0,29.58,ESE,122,3.0,7.7,73,0.00,,,0.00,VWS V14.01,2013-09-19 21:48:00,
2013-09-19 17:50:00,84.5,75.5,29.58,East,83,0.0,5.0,74,0.00,,,0.00,VWS V14.01,2013-09-19 21:50:00,
2013-09-19 17:51:00,84.3,75.4,29.58,East,83,0.0,0.0,75,0.00,,,0.00,VWS V14.01,2013-09-19 21:51:00,
2013-09-19 17:52:00,84.2,75.1,29.58,ESE,121,0.0,3.2,74,0.00,,,0.00,VWS V14.01,2013-09-19 21:52:00,
2013-09-19 17:54:00,84.1,75.3,29.58,ESE,122,0.0,2.2,75,0.00,,,0.00,VWS V14.01,2013-09-19 21:54:00,
2013-09-19 17:56:00,83.9,75.1,29.58,ESE,122,0.0,0.0,75,0.00,,,0.00,VWS V14.01,2013-09-19 21:56:00,
2013-09-19 17:58:00,83.7,74.7,29.58,ENE,58,3.0,4.2,74,0.00,,,0.00,VWS V14.01,2013-09-19 21:58:00,
2013-09-19 18:00:00,83.4,74.7,29.58,NE,45,0.0,3.0,75,0.00,,,0.00,VWS V14.01,2013-09-19 22:00:00,
2013-09-19 18:01:00,83.5,74.9,29.58,NE,38,0.0,4.9,75,0.00,,,0.00,VWS V14.01,2013-09-19 22:01:00,
2013-09-19 18:02:00,83.4,74.7,29.58,NE,39,2.3,4.9,75,0.00,,,0.00,VWS V14.01,2013-09-19 22:02:00,
2013-09-19 18:04:00,83.3,74.8,29.58,East,83,0.0,3.2,76,0.00,,,0.00,VWS V14.01,2013-09-19 22:04:00,
2013-09-19 18:06:00,83.2,74.7,29.58,East,83,0.0,0.0,76,0.00,,,0.00,VWS V14.01,2013-09-19 22:06:00,
2013-09-19 18:08:00,83.1,74.8,29.58,NE,52,0.0,3.3,76,0.00,,,0.00,VWS V14.01,2013-09-19 22:08:00,
2013-09-19 18:10:00,82.9,74.3,29.58,NE,52,0.0,1.9,75,0.00,,,0.00,VWS V14.01,2013-09-19 22:10:00,
2013-09-19 18:11:00,83.0,74.5,29.58,NE,52,0.0,0.0,76,0.00,,,0.00,VWS V14.01,2013-09-19 22:11:00,
2013-09-19 18:12:00,82.9,74.4,29.58,ESE,117,0.0,3.0,76,0.00,,,0.00,VWS V14.01,2013-09-19 22:12:00,
2013-09-19 18:14:00,82.7,74.2,29.58,NE,38,0.0,4.1,76,0.00,,,0.00,VWS V14.01,2013-09-19 22:14:00,
2013-09-19 18:16:00,82.9,74.6,29.58,NE,38,0.0,0.0,76,0.00,,,0.00,VWS V14.01,2013-09-19 22:16:00,
2013-09-19 18:18:00,82.8,74.7,29.58,NE,38,0.0,0.0,77,0.00,,,0.00,VWS V14.01,2013-09-19 22:18:00,
2013-09-19 18:20:00,82.5,74.4,29.58,NE,38,0.0,0.0,77,0.00,,,0.00,VWS V14.01,2013-09-19 22:20:00,
2013-09-19 18:21:00,82.6,74.7,29.58,NE,38,0.0,0.0,77,0.00,,,0.00,VWS V14.01,2013-09-19 22:21:00,
2013-09-19 18:22:00,82.5,74.8,29.58,NE,38,0.0,0.0,78,0.00,,,0.00,VWS V14.01,2013-09-19 22:22:00,
2013-09-19 18:24:00,82.4,74.6,29.58,NE,38,0.0,2.4,77,0.00,,,0.00,VWS V14.01,2013-09-19 22:24:00,
2013-09-19 18:26:00,82.5,74.8,29.58,NE,38,0.0,0.0,78,0.00,,,0.00,VWS V14.01,2013-09-19 22:26:00,
2013-09-19 18:28:00,82.4,74.9,29.58,NE,38,0.0,0.0,78,0.00,,,0.00,VWS V14.01,2013-09-19 22:28:00,
2013-09-19 18:30:00,82.4,74.8,29.58,NE,38,0.0,0.0,78,0.00,,,0.00,VWS V14.01,2013-09-19 22:30:00,
2013-09-19 18:31:00,82.2,74.8,29.58,NE,38,0.0,0.0,78,0.00,,,0.00,VWS V14.01,2013-09-19 22:31:00,
2013-09-19 18:32:00,82.4,74.4,29.58,NE,38,0.0,0.0,77,0.00,,,0.00,VWS V14.01,2013-09-19 22:32:00,
2013-09-19 18:34:00,82.3,73.9,29.58,NE,38,0.0,0.0,76,0.00,,,0.00,VWS V14.01,2013-09-19 22:34:00,
2013-09-19 18:36:00,82.3,73.5,29.58,NE,38,0.0,0.0,75,0.00,,,0.00,VWS V14.01,2013-09-19 22:36:00,
2013-09-19 18:38:00,82.5,73.7,29.58,NE,38,0.0,0.0,75,0.00,,,0.00,VWS V14.01,2013-09-19 22:38:00,
2013-09-19 18:40:00,82.4,73.3,29.58,NE,38,0.0,0.0,74,0.00,,,0.00,VWS V14.01,2013-09-19 22:40:00,
2013-09-19 18:41:00,82.4,73.4,29.58,NE,38,0.0,0.0,74,0.00,,,0.00,VWS V14.01,2013-09-19 22:41:00,
2013-09-19 18:42:00,82.3,73.2,29.58,NE,38,0.0,0.0,74,0.00,,,0.00,VWS V14.01,2013-09-19 22:42:00,
2013-09-19 18:44:00,82.4,73.5,29.58,ESE,120,0.0,2.9,75,0.00,,,0.00,VWS V14.01,2013-09-19 22:44:00,
2013-09-19 18:46:00,82.3,73.4,29.58,ESE,120,0.0,0.0,75,0.00,,,0.00,VWS V14.01,2013-09-19 22:46:00,
2013-09-19 18:48:00,82.4,73.7,29.58,ESE,120,0.0,0.0,75,0.00,,,0.00,VWS V14.01,2013-09-19 22:48:00,
2013-09-19 18:50:00,82.4,73.8,29.58,ESE,120,0.0,0.0,75,0.00,,,0.00,VWS V14.01,2013-09-19 22:50:00,
2013-09-19 18:51:00,82.5,73.9,29.58,ESE,120,0.0,0.0,75,0.00,,,0.00,VWS V14.01,2013-09-19 22:51:00,
2013-09-19 18:52:00,82.4,73.9,29.58,ESE,120,0.0,0.0,76,0.00,,,0.00,VWS V14.01,2013-09-19 22:52:00,
2013-09-19 18:54:00,82.5,74.0,29.58,ESE,120,0.0,0.0,76,0.00,,,0.00,VWS V14.01,2013-09-19 22:54:00,
2013-09-19 18:56:00,82.4,74.0,29.58,ESE,120,0.0,0.0,76,0.00,,,0.00,VWS V14.01,2013-09-19 22:56:00,
2013-09-19 18:58:00,82.5,74.5,29.58,ESE,120,0.0,0.0,77,0.00,,,0.00,VWS V14.01,2013-09-19 22:58:00,
2013-09-19 19:00:00,82.7,74.7,29.58,ESE,120,0.0,0.0,77,0.00,,,0.00,VWS V14.01,2013-09-19 23:00:00,
2013-09-19 19:01:00,82.5,74.4,29.58,ESE,120,0.0,0.0,77,0.00,,,0.00,VWS V14.01,2013-09-19 23:01:00,
2013-09-19 19:02:00,82.8,74.9,29.58,ESE,120,0.0,0.0,77,0.00,,,0.00,VWS V14.01,2013-09-19 23:02:00,
2013-09-19 19:04:00,82.4,74.6,29.58,ESE,120,0.0,0.0,77,0.00,,,0.00,VWS V14.01,2013-09-19 23:04:00,
2013-09-19 19:06:00,82.4,74.8,29.58,ESE,120,0.0,0.0,78,0.00,,,0.00,VWS V14.01,2013-09-19 23:06:00,
2013-09-19 19:08:00,82.4,74.9,29.58,ESE,120,0.0,0.0,78,0.00,,,0.00,VWS V14.01,2013-09-19 23:08:00,
2013-09-19 19:10:00,82.4,74.8,29.58,ESE,120,0.0,0.0,78,0.00,,,0.00,VWS V14.01,2013-09-19 23:10:00,
2013-09-19 19:11:00,82.5,74.9,29.58,ESE,120,0.0,0.0,78,0.00,,,0.00,VWS V14.01,2013-09-19 23:11:00,
2013-09-19 19:12:00,82.6,74.9,29.58,ESE,120,0.0,0.0,78,0.00,,,0.00,VWS V14.01,2013-09-19 23:12:00,
2013-09-19 19:14:00,82.5,74.7,29.58,ESE,120,0.0,0.0,77,0.00,,,0.00,VWS V14.01,2013-09-19 23:14:00,
2013-09-19 19:16:00,82.5,74.7,29.58,ESE,120,0.0,0.0,77,0.00,,,0.00,VWS V14.01,2013-09-19 23:16:00,
2013-09-19 19:21:00,82.5,74.7,29.58,ESE,120,0.0,0.0,77,0.00,,,0.00,VWS V14.01,2013-09-19 23:21:00,
2013-09-19 19:26:00,82.5,74.7,29.58,ESE,120,0.0,0.0,77,0.00,,,0.00,VWS V14.01,2013-09-19 23:26:00,
2013-09-19 19:31:00,82.5,74.7,29.58,ESE,120,0.0,0.0,77,0.00,,,0.00,VWS V14.01,2013-09-19 23:31:00,
2013-09-19 21:02:00,79.7,73.9,29.59,ESE,120,0.0,0.0,83,0.00,,,0.00,VWS V14.01,2013-09-20 01:02:00,
2013-09-19 21:04:00,79.5,73.8,29.59,ESE,120,0.0,0.0,83,0.00,,,0.00,VWS V14.01,2013-09-20 01:04:00,
2013-09-19 21:06:00,79.7,74.0,29.59,ESE,120,0.0,0.0,83,0.00,,,0.00,VWS V14.01,2013-09-20 01:06:00,
2013-09-19 21:07:00,79.8,74.1,29.59,ESE,120,0.0,0.0,83,0.00,,,0.00,VWS V14.01,2013-09-20 01:07:00,
2013-09-19 21:08:00,79.5,73.8,29.59,ESE,120,0.0,0.0,83,0.00,,,0.00,VWS V14.01,2013-09-20 01:08:00,
2013-09-19 21:10:00,79.4,73.7,29.59,ESE,120,0.0,0.0,83,0.00,,,0.00,VWS V14.01,2013-09-20 01:10:00,
2013-09-19 21:12:00,79.5,73.8,29.59,ESE,120,0.0,0.0,83,0.00,,,0.00,VWS V14.01,2013-09-20 01:12:00,
2013-09-19 21:14:00,79.4,73.7,29.58,ESE,120,0.0,0.0,83,0.00,,,0.00,VWS V14.01,2013-09-20 01:14:00,
2013-09-19 21:16:00,79.4,73.8,29.59,ESE,120,0.0,0.0,83,0.00,,,0.00,VWS V14.01,2013-09-20 01:16:00,
2013-09-19 21:17:00,79.3,73.7,29.59,ESE,120,0.0,0.0,83,0.00,,,0.00,VWS V14.01,2013-09-20 01:17:00,
2013-09-19 21:18:00,79.5,73.8,29.59,ESE,120,0.0,0.0,83,0.00,,,0.00,VWS V14.01,2013-09-20 01:18:00,
2013-09-19 21:20:00,79.5,73.9,29.59,ESE,120,0.0,0.0,83,0.00,,,0.00,VWS V14.01,2013-09-20 01:20:00,
2013-09-19 21:22:00,79.4,73.8,29.59,ESE,120,0.0,0.0,83,0.00,,,0.00,VWS V14.01,2013-09-20 01:22:00,
2013-09-19 21:24:00,79.4,73.7,29.59,ESE,120,0.0,0.0,83,0.00,,,0.00,VWS V14.01,2013-09-20 01:24:00,
2013-09-19 21:26:00,79.4,73.8,29.59,ESE,120,0.0,0.0,83,0.00,,,0.00,VWS V14.01,2013-09-20 01:26:00,
2013-09-19 21:27:00,79.3,73.7,29.59,ESE,120,0.0,0.0,83,0.00,,,0.00,VWS V14.01,2013-09-20 01:27:00,
2013-09-19 21:28:00,79.4,73.8,29.59,ESE,120,0.0,0.0,83,0.00,,,0.00,VWS V14.01,2013-09-20 01:28:00,
2013-09-19 21:30:00,79.3,73.6,29.59,ESE,120,0.0,0.0,83,0.00,,,0.00,VWS V14.01,2013-09-20 01:30:00,
2013-09-19 21:32:00,79.2,73.6,29.59,ESE,120,0.0,0.0,83,0.00,,,0.00,VWS V14.01,2013-09-20 01:32:00,
2013-09-19 21:34:00,79.3,73.7,29.59,ESE,120,0.0,0.0,83,0.00,,,0.00,VWS V14.01,2013-09-20 01:34:00,
2013-09-19 21:36:00,79.1,73.5,29.59,ESE,120,0.0,0.0,83,0.00,,,0.00,VWS V14.01,2013-09-20 01:36:00,
2013-09-19 21:37:00,79.1,73.5,29.59,ESE,120,0.0,0.0,83,0.00,,,0.00,VWS V14.01,2013-09-20 01:37:00,
2013-09-19 21:38:00,79.0,73.4,29.59,ESE,120,0.0,0.0,83,0.00,,,0.00,VWS V14.01,2013-09-20 01:38:00,
2013-09-19 21:40:00,79.0,73.5,29.59,ESE,120,0.0,0.0,83,0.00,,,0.00,VWS V14.01,2013-09-20 01:40:00,
2013-09-19 21:42:00,79.0,73.5,29.59,ESE,120,0.0,0.0,83,0.00,,,0.00,VWS V14.01,2013-09-20 01:42:00,
2013-09-19 21:47:00,79.0,73.5,29.59,ESE,120,0.0,0.0,83,0.00,,,0.00,VWS V14.01,2013-09-20 01:47:00,
2013-09-19 21:52:00,79.0,73.4,29.59,ESE,120,0.0,0.0,83,0.00,,,0.00,VWS V14.01,2013-09-20 01:52:00,
2013-09-19 21:57:00,78.9,73.2,29.59,ESE,120,0.0,0.0,83,0.00,,,0.00,VWS V14.01,2013-09-20 01:57:00,
2013-09-19 22:02:00,78.9,73.3,29.60,ESE,120,0.0,0.0,83,0.00,,,0.00,VWS V14.01,2013-09-20 02:02:00,
2013-09-19 22:07:00,78.8,73.1,29.59,ESE,120,0.0,0.0,83,0.00,,,0.00,VWS V14.01,2013-09-20 02:07:00,
2013-09-19 22:12:00,78.5,72.9,29.60,ESE,120,0.0,0.0,83,0.00,,,0.00,VWS V14.01,2013-09-20 02:12:00,
2013-09-19 22:17:00,78.8,73.1,29.60,ESE,120,0.0,0.0,83,0.00,,,0.00,VWS V14.01,2013-09-20 02:17:00,
2013-09-19 22:22:00,78.3,72.8,29.60,ESE,120,0.0,0.0,83,0.00,,,0.00,VWS V14.01,2013-09-20 02:22:00,
2013-09-19 22:27:00,78.4,72.9,29.59,ESE,120,0.0,0.0,83,0.00,,,0.00,VWS V14.01,2013-09-20 02:27:00,
2013-09-19 22:32:00,78.3,72.8,29.60,ESE,120,0.0,0.0,83,0.00,,,0.00,VWS V14.01,2013-09-20 02:32:00,
2013-09-19 22:37:00,78.1,72.8,29.59,ESE,120,0.0,0.0,84,0.00,,,0.00,VWS V14.01,2013-09-20 02:37:00,
2013-09-19 22:42:00,77.9,72.6,29.59,ESE,120,0.0,0.0,84,0.00,,,0.00,VWS V14.01,2013-09-20 02:42:00,
2013-09-19 22:47:00,78.0,72.8,29.59,ESE,120,0.0,0.0,84,0.00,,,0.00,VWS V14.01,2013-09-20 02:47:00,
2013-09-19 22:52:00,77.9,72.8,29.59,ESE,120,0.0,0.0,84,0.00,,,0.00,VWS V14.01,2013-09-20 02:52:00,
2013-09-19 22:57:00,78.0,72.8,29.59,ESE,120,0.0,0.0,84,0.00,,,0.00,VWS V14.01,2013-09-20 02:57:00,
2013-09-19 23:02:00,78.0,72.7,29.59,ESE,120,0.0,0.0,84,0.00,,,0.00,VWS V14.01,2013-09-20 03:02:00,
2013-09-19 23:07:00,78.0,72.8,29.59,ESE,120,0.0,0.0,84,0.00,,,0.00,VWS V14.01,2013-09-20 03:07:00,
2013-09-19 23:12:00,77.8,72.7,29.59,ESE,120,0.0,0.0,84,0.00,,,0.00,VWS V14.01,2013-09-20 03:12:00,
2013-09-19 23:17:00,77.8,72.7,29.59,ESE,120,0.0,0.0,84,0.00,,,0.00,VWS V14.01,2013-09-20 03:17:00,
2013-09-19 23:22:00,77.8,72.7,29.59,ESE,120,0.0,0.0,84,0.00,,,0.00,VWS V14.01,2013-09-20 03:22:00,
2013-09-19 23:27:00,77.8,72.7,29.59,ESE,120,0.0,0.0,84,0.00,,,0.00,VWS V14.01,2013-09-20 03:27:00,
2013-09-19 23:32:00,77.7,72.7,29.59,ESE,120,0.0,0.0,84,0.00,,,0.00,VWS V14.01,2013-09-20 03:32:00,
2013-09-19 23:37:00,77.8,72.8,29.59,ESE,120,0.0,0.0,85,0.00,,,0.00,VWS V14.01,2013-09-20 03:37:00,
2013-09-19 23:43:00,77.4,72.5,29.59,ESE,120,0.0,0.0,85,0.00,,,0.00,VWS V14.01,2013-09-20 03:43:00,
2013-09-19 23:48:00,77.2,72.4,29.59,ESE,120,0.0,0.0,85,0.00,,,0.00,VWS V14.01,2013-09-20 03:48:00,
2013-09-19 23:53:00,77.2,72.4,29.59,ESE,120,0.0,0.0,85,0.00,,,0.00,VWS V14.01,2013-09-20 03:53:00,
2013-09-19 23:58:00,77.1,72.5,29.59,ESE,120,0.0,0.0,86,0.00,,,0.00,VWS V14.01,2013-09-20 03:58:00,